<?xml version="1.0" encoding="UTF-8" standalone="no" ?>
<gpx xmlns="http://www.topografix.com/GPX/1/1" xmlns:xsi="http://www.w3.org/2001/XMLSchema-instance" xsi:schemaLocation="http://www.topografix.com/GPX/1/1 http://www.topografix.com/GPX/1/1/gpx.xsd" version="1.1" creator="VisuGPX - https://www.visugpx.com">
  <metadata>
    <name>Villard de Lans- Sisteron étape</name>
  </metadata>
  <trk>
    <name><![CDATA[Villard de Lans- Sisteron]]></name>
    <extensions>
      <line xmlns="http://www.topografix.com/GPX/gpx_style/0/2">
        <color>0000FF</color>
        <width>4</width>
      </line>
    </extensions>
    <trkseg>
      <trkpt lat="45.05844" lon="5.54691">
        <ele>992.5</ele>
        <time>2022-09-05T21:30:34.000Z</time>
      </trkpt>
      <trkpt lat="45.0586" lon="5.54841">
        <ele>997.3</ele>
        <time>2022-09-05T21:30:34.021Z</time>
      </trkpt>
      <trkpt lat="45.05901" lon="5.54867">
        <ele>1000.1</ele>
        <time>2022-09-05T21:30:34.072Z</time>
      </trkpt>
      <trkpt lat="45.05885" lon="5.54972">
        <ele>1011.1</ele>
        <time>2022-09-05T21:30:34.148Z</time>
      </trkpt>
      <trkpt lat="45.05908" lon="5.55145">
        <ele>1033.1</ele>
        <time>2022-09-05T21:30:34.265Z</time>
      </trkpt>
      <trkpt lat="45.05886" lon="5.55363">
        <ele>1051.6</ele>
        <time>2022-09-05T21:30:34.438Z</time>
      </trkpt>
      <trkpt lat="45.05896" lon="5.55465">
        <ele>1059.8</ele>
        <time>2022-09-05T21:30:34.656Z</time>
      </trkpt>
      <trkpt lat="45.0592" lon="5.55494">
        <ele>1060.8</ele>
        <time>2022-09-05T21:30:34.895Z</time>
      </trkpt>
      <trkpt lat="45.0591" lon="5.55489">
        <ele>1061.4</ele>
        <time>2022-09-05T21:30:35.143Z</time>
      </trkpt>
      <trkpt lat="45.05913" lon="5.55538">
        <ele>1069.6</ele>
        <time>2022-09-05T21:30:35.400Z</time>
      </trkpt>
      <trkpt lat="45.0578" lon="5.55624">
        <ele>1079.9</ele>
        <time>2022-09-05T21:30:35.693Z</time>
      </trkpt>
      <trkpt lat="45.05652" lon="5.5564">
        <ele>1087.8</ele>
        <time>2022-09-05T21:30:36.041Z</time>
      </trkpt>
      <trkpt lat="45.05626" lon="5.55594">
        <ele>1085.6</ele>
        <time>2022-09-05T21:30:36.423Z</time>
      </trkpt>
      <trkpt lat="45.05473" lon="5.55455">
        <ele>1112.3</ele>
        <time>2022-09-05T21:30:36.849Z</time>
      </trkpt>
      <trkpt lat="45.05408" lon="5.55369">
        <ele>1123.1</ele>
        <time>2022-09-05T21:30:37.329Z</time>
      </trkpt>
      <trkpt lat="45.05333" lon="5.55319">
        <ele>1129.5</ele>
        <time>2022-09-05T21:30:37.844Z</time>
      </trkpt>
      <trkpt lat="45.05252" lon="5.5529">
        <ele>1120.6</ele>
        <time>2022-09-05T21:30:38.393Z</time>
      </trkpt>
      <trkpt lat="45.0519" lon="5.55291">
        <ele>1115.4</ele>
        <time>2022-09-05T21:30:38.971Z</time>
      </trkpt>
      <trkpt lat="45.05062" lon="5.55185">
        <ele>1120.3</ele>
        <time>2022-09-05T21:30:39.591Z</time>
      </trkpt>
      <trkpt lat="45.04858" lon="5.55203">
        <ele>1128.3</ele>
        <time>2022-09-05T21:30:40.281Z</time>
      </trkpt>
      <trkpt lat="45.04821" lon="5.55302">
        <ele>1123.7</ele>
        <time>2022-09-05T21:30:41.027Z</time>
      </trkpt>
      <trkpt lat="45.04821" lon="5.55526">
        <ele>1124.7</ele>
        <time>2022-09-05T21:30:41.821Z</time>
      </trkpt>
      <trkpt lat="45.04782" lon="5.55553">
        <ele>1124.6</ele>
        <time>2022-09-05T21:30:42.656Z</time>
      </trkpt>
      <trkpt lat="45.04756" lon="5.5554">
        <ele>1123.3</ele>
        <time>2022-09-05T21:30:43.505Z</time>
      </trkpt>
      <trkpt lat="45.04701" lon="5.55454">
        <ele>1119.9</ele>
        <time>2022-09-05T21:30:44.376Z</time>
      </trkpt>
      <trkpt lat="45.04677" lon="5.55445">
        <ele>1121.3</ele>
        <time>2022-09-05T21:30:45.269Z</time>
      </trkpt>
      <trkpt lat="45.04641" lon="5.55529">
        <ele>1125.2</ele>
        <time>2022-09-05T21:30:46.181Z</time>
      </trkpt>
      <trkpt lat="45.04576" lon="5.55555">
        <ele>1121.3</ele>
        <time>2022-09-05T21:30:47.120Z</time>
      </trkpt>
      <trkpt lat="45.04534" lon="5.55727">
        <ele>1119.3</ele>
        <time>2022-09-05T21:30:48.098Z</time>
      </trkpt>
      <trkpt lat="45.04466" lon="5.55844">
        <ele>1126.6</ele>
        <time>2022-09-05T21:30:49.124Z</time>
      </trkpt>
      <trkpt lat="45.04427" lon="5.55795">
        <ele>1126.8</ele>
        <time>2022-09-05T21:30:50.182Z</time>
      </trkpt>
      <trkpt lat="45.04278" lon="5.55455">
        <ele>1155.7</ele>
        <time>2022-09-05T21:30:51.307Z</time>
      </trkpt>
      <trkpt lat="45.04187" lon="5.55266">
        <ele>1153</ele>
        <time>2022-09-05T21:30:52.521Z</time>
      </trkpt>
      <trkpt lat="45.04136" lon="5.55194">
        <ele>1147.4</ele>
        <time>2022-09-05T21:30:53.782Z</time>
      </trkpt>
      <trkpt lat="45.04149" lon="5.55137">
        <ele>1140.4</ele>
        <time>2022-09-05T21:30:55.066Z</time>
      </trkpt>
      <trkpt lat="45.0413" lon="5.55097">
        <ele>1143.7</ele>
        <time>2022-09-05T21:30:56.365Z</time>
      </trkpt>
      <trkpt lat="45.04136" lon="5.5505">
        <ele>1144.7</ele>
        <time>2022-09-05T21:30:57.678Z</time>
      </trkpt>
      <trkpt lat="45.04238" lon="5.54923">
        <ele>1126.2</ele>
        <time>2022-09-05T21:30:59.025Z</time>
      </trkpt>
      <trkpt lat="45.04275" lon="5.54847">
        <ele>1124.7</ele>
        <time>2022-09-05T21:31:00.412Z</time>
      </trkpt>
      <trkpt lat="45.04263" lon="5.54825">
        <ele>1125.1</ele>
        <time>2022-09-05T21:31:01.816Z</time>
      </trkpt>
      <trkpt lat="45.04172" lon="5.54812">
        <ele>1126.5</ele>
        <time>2022-09-05T21:31:03.242Z</time>
      </trkpt>
      <trkpt lat="45.04183" lon="5.54686">
        <ele>1115.3</ele>
        <time>2022-09-05T21:31:04.704Z</time>
      </trkpt>
      <trkpt lat="45.04248" lon="5.54586">
        <ele>1102.5</ele>
        <time>2022-09-05T21:31:06.203Z</time>
      </trkpt>
      <trkpt lat="45.04259" lon="5.54466">
        <ele>1101.1</ele>
        <time>2022-09-05T21:31:07.738Z</time>
      </trkpt>
      <trkpt lat="45.04191" lon="5.54197">
        <ele>1084.8</ele>
        <time>2022-09-05T21:31:09.331Z</time>
      </trkpt>
      <trkpt lat="45.04147" lon="5.54145">
        <ele>1090</ele>
        <time>2022-09-05T21:31:10.976Z</time>
      </trkpt>
      <trkpt lat="45.04121" lon="5.53914">
        <ele>1087.9</ele>
        <time>2022-09-05T21:31:12.666Z</time>
      </trkpt>
      <trkpt lat="45.04097" lon="5.53873">
        <ele>1086.2</ele>
        <time>2022-09-05T21:31:14.397Z</time>
      </trkpt>
      <trkpt lat="45.03932" lon="5.53744">
        <ele>1095</ele>
        <time>2022-09-05T21:31:16.173Z</time>
      </trkpt>
      <trkpt lat="45.03704" lon="5.53503">
        <ele>1086.9</ele>
        <time>2022-09-05T21:31:18.044Z</time>
      </trkpt>
      <trkpt lat="45.03657" lon="5.53409">
        <ele>1087.1</ele>
        <time>2022-09-05T21:31:19.988Z</time>
      </trkpt>
      <trkpt lat="45.03483" lon="5.53349">
        <ele>1089.4</ele>
        <time>2022-09-05T21:31:21.984Z</time>
      </trkpt>
      <trkpt lat="45.03415" lon="5.533">
        <ele>1090.7</ele>
        <time>2022-09-05T21:31:24.031Z</time>
      </trkpt>
      <trkpt lat="45.03357" lon="5.53212">
        <ele>1091.9</ele>
        <time>2022-09-05T21:31:26.110Z</time>
      </trkpt>
      <trkpt lat="45.03335" lon="5.5312">
        <ele>1091.9</ele>
        <time>2022-09-05T21:31:28.220Z</time>
      </trkpt>
      <trkpt lat="45.03282" lon="5.53146">
        <ele>1095.9</ele>
        <time>2022-09-05T21:31:30.355Z</time>
      </trkpt>
      <trkpt lat="45.03214" lon="5.53056">
        <ele>1100.6</ele>
        <time>2022-09-05T21:31:32.520Z</time>
      </trkpt>
      <trkpt lat="45.03178" lon="5.5304">
        <ele>1102.7</ele>
        <time>2022-09-05T21:31:34.711Z</time>
      </trkpt>
      <trkpt lat="45.03161" lon="5.52962">
        <ele>1098</ele>
        <time>2022-09-05T21:31:36.921Z</time>
      </trkpt>
      <trkpt lat="45.03106" lon="5.52886">
        <ele>1098.4</ele>
        <time>2022-09-05T21:31:39.158Z</time>
      </trkpt>
      <trkpt lat="45.03088" lon="5.52744">
        <ele>1101.6</ele>
        <time>2022-09-05T21:31:41.431Z</time>
      </trkpt>
      <trkpt lat="45.03066" lon="5.52764">
        <ele>1101.3</ele>
        <time>2022-09-05T21:31:43.730Z</time>
      </trkpt>
      <trkpt lat="45.02929" lon="5.52778">
        <ele>1110.7</ele>
        <time>2022-09-05T21:31:46.062Z</time>
      </trkpt>
      <trkpt lat="45.02877" lon="5.52706">
        <ele>1113.7</ele>
        <time>2022-09-05T21:31:48.436Z</time>
      </trkpt>
      <trkpt lat="45.02823" lon="5.52674">
        <ele>1117.5</ele>
        <time>2022-09-05T21:31:50.836Z</time>
      </trkpt>
      <trkpt lat="45.02796" lon="5.52604">
        <ele>1117.3</ele>
        <time>2022-09-05T21:31:53.259Z</time>
      </trkpt>
      <trkpt lat="45.0279" lon="5.52461">
        <ele>1118.1</ele>
        <time>2022-09-05T21:31:55.713Z</time>
      </trkpt>
      <trkpt lat="45.02697" lon="5.5222">
        <ele>1118.7</ele>
        <time>2022-09-05T21:31:58.226Z</time>
      </trkpt>
      <trkpt lat="45.02678" lon="5.52218">
        <ele>1121.2</ele>
        <time>2022-09-05T21:32:00.782Z</time>
      </trkpt>
      <trkpt lat="45.02575" lon="5.52105">
        <ele>1128</ele>
        <time>2022-09-05T21:32:03.368Z</time>
      </trkpt>
      <trkpt lat="45.02606" lon="5.52046">
        <ele>1122.3</ele>
        <time>2022-09-05T21:32:05.991Z</time>
      </trkpt>
      <trkpt lat="45.02581" lon="5.52001">
        <ele>1124.4</ele>
        <time>2022-09-05T21:32:08.633Z</time>
      </trkpt>
      <trkpt lat="45.02522" lon="5.51952">
        <ele>1133.3</ele>
        <time>2022-09-05T21:32:11.296Z</time>
      </trkpt>
      <trkpt lat="45.02501" lon="5.51894">
        <ele>1135.1</ele>
        <time>2022-09-05T21:32:13.982Z</time>
      </trkpt>
      <trkpt lat="45.0245" lon="5.51831">
        <ele>1138.3</ele>
        <time>2022-09-05T21:32:16.691Z</time>
      </trkpt>
      <trkpt lat="45.02452" lon="5.51803">
        <ele>1137.5</ele>
        <time>2022-09-05T21:32:19.417Z</time>
      </trkpt>
      <trkpt lat="45.02417" lon="5.51766">
        <ele>1141.8</ele>
        <time>2022-09-05T21:32:22.156Z</time>
      </trkpt>
      <trkpt lat="45.02336" lon="5.51746">
        <ele>1146.1</ele>
        <time>2022-09-05T21:32:24.920Z</time>
      </trkpt>
      <trkpt lat="45.02323" lon="5.51713">
        <ele>1148.2</ele>
        <time>2022-09-05T21:32:27.706Z</time>
      </trkpt>
      <trkpt lat="45.02331" lon="5.51672">
        <ele>1152.4</ele>
        <time>2022-09-05T21:32:30.504Z</time>
      </trkpt>
      <trkpt lat="45.02368" lon="5.5166">
        <ele>1154</ele>
        <time>2022-09-05T21:32:33.315Z</time>
      </trkpt>
      <trkpt lat="45.02378" lon="5.51586">
        <ele>1163.4</ele>
        <time>2022-09-05T21:32:36.144Z</time>
      </trkpt>
      <trkpt lat="45.02384" lon="5.51601">
        <ele>1162</ele>
        <time>2022-09-05T21:32:38.986Z</time>
      </trkpt>
      <trkpt lat="45.02653" lon="5.51511">
        <ele>1182.3</ele>
        <time>2022-09-05T21:32:41.886Z</time>
      </trkpt>
      <trkpt lat="45.02763" lon="5.51332">
        <ele>1191.9</ele>
        <time>2022-09-05T21:32:44.875Z</time>
      </trkpt>
      <trkpt lat="45.0282" lon="5.51193">
        <ele>1192.9</ele>
        <time>2022-09-05T21:32:47.920Z</time>
      </trkpt>
      <trkpt lat="45.02949" lon="5.51114">
        <ele>1203.8</ele>
        <time>2022-09-05T21:32:51.016Z</time>
      </trkpt>
      <trkpt lat="45.03002" lon="5.50946">
        <ele>1203.3</ele>
        <time>2022-09-05T21:32:54.166Z</time>
      </trkpt>
      <trkpt lat="45.03039" lon="5.50931">
        <ele>1208.4</ele>
        <time>2022-09-05T21:32:57.350Z</time>
      </trkpt>
      <trkpt lat="45.0312" lon="5.50852">
        <ele>1214.8</ele>
        <time>2022-09-05T21:33:00.562Z</time>
      </trkpt>
      <trkpt lat="45.03157" lon="5.50851">
        <ele>1216.1</ele>
        <time>2022-09-05T21:33:03.801Z</time>
      </trkpt>
      <trkpt lat="45.03193" lon="5.50767">
        <ele>1215.6</ele>
        <time>2022-09-05T21:33:07.061Z</time>
      </trkpt>
      <trkpt lat="45.03223" lon="5.50751">
        <ele>1216.1</ele>
        <time>2022-09-05T21:33:10.341Z</time>
      </trkpt>
      <trkpt lat="45.0335" lon="5.5077">
        <ele>1225.5</ele>
        <time>2022-09-05T21:33:13.653Z</time>
      </trkpt>
      <trkpt lat="45.03402" lon="5.50745">
        <ele>1225.1</ele>
        <time>2022-09-05T21:33:17.002Z</time>
      </trkpt>
      <trkpt lat="45.03471" lon="5.50792">
        <ele>1229.5</ele>
        <time>2022-09-05T21:33:20.377Z</time>
      </trkpt>
      <trkpt lat="45.03673" lon="5.50799">
        <ele>1232</ele>
        <time>2022-09-05T21:33:23.808Z</time>
      </trkpt>
      <trkpt lat="45.03668" lon="5.507">
        <ele>1235.6</ele>
        <time>2022-09-05T21:33:27.294Z</time>
      </trkpt>
      <trkpt lat="45.03714" lon="5.50633">
        <ele>1236.8</ele>
        <time>2022-09-05T21:33:30.807Z</time>
      </trkpt>
      <trkpt lat="45.03743" lon="5.50519">
        <ele>1238.4</ele>
        <time>2022-09-05T21:33:34.350Z</time>
      </trkpt>
      <trkpt lat="45.03886" lon="5.50283">
        <ele>1263.3</ele>
        <time>2022-09-05T21:33:37.954Z</time>
      </trkpt>
      <trkpt lat="45.03892" lon="5.5019">
        <ele>1272.7</ele>
        <time>2022-09-05T21:33:41.616Z</time>
      </trkpt>
      <trkpt lat="45.03917" lon="5.50125">
        <ele>1277.5</ele>
        <time>2022-09-05T21:33:45.302Z</time>
      </trkpt>
      <trkpt lat="45.03961" lon="5.50082">
        <ele>1276.9</ele>
        <time>2022-09-05T21:33:49.009Z</time>
      </trkpt>
      <trkpt lat="45.04161" lon="5.50061">
        <ele>1276.2</ele>
        <time>2022-09-05T21:33:52.767Z</time>
      </trkpt>
      <trkpt lat="45.04203" lon="5.50032">
        <ele>1273.5</ele>
        <time>2022-09-05T21:33:56.574Z</time>
      </trkpt>
      <trkpt lat="45.04272" lon="5.4994">
        <ele>1275.5</ele>
        <time>2022-09-05T21:34:00.409Z</time>
      </trkpt>
      <trkpt lat="45.04264" lon="5.49921">
        <ele>1277.5</ele>
        <time>2022-09-05T21:34:04.266Z</time>
      </trkpt>
      <trkpt lat="45.04285" lon="5.49847">
        <ele>1286.5</ele>
        <time>2022-09-05T21:34:08.138Z</time>
      </trkpt>
      <trkpt lat="45.04252" lon="5.49748">
        <ele>1300.4</ele>
        <time>2022-09-05T21:34:12.037Z</time>
      </trkpt>
      <trkpt lat="45.04171" lon="5.49701">
        <ele>1305.3</ele>
        <time>2022-09-05T21:34:15.969Z</time>
      </trkpt>
      <trkpt lat="45.03916" lon="5.49602">
        <ele>1337.3</ele>
        <time>2022-09-05T21:34:19.972Z</time>
      </trkpt>
      <trkpt lat="45.03988" lon="5.49509">
        <ele>1361.6</ele>
        <time>2022-09-05T21:34:24.047Z</time>
      </trkpt>
      <trkpt lat="45.04079" lon="5.49484">
        <ele>1373.2</ele>
        <time>2022-09-05T21:34:28.160Z</time>
      </trkpt>
      <trkpt lat="45.0407" lon="5.4937">
        <ele>1394.8</ele>
        <time>2022-09-05T21:34:32.308Z</time>
      </trkpt>
      <trkpt lat="45.0434" lon="5.49314">
        <ele>1424</ele>
        <time>2022-09-05T21:34:36.526Z</time>
      </trkpt>
      <trkpt lat="45.04369" lon="5.4932">
        <ele>1427.6</ele>
        <time>2022-09-05T21:34:40.804Z</time>
      </trkpt>
      <trkpt lat="45.04496" lon="5.4924">
        <ele>1444</ele>
        <time>2022-09-05T21:34:45.116Z</time>
      </trkpt>
      <trkpt lat="45.04549" lon="5.49056">
        <ele>1460.5</ele>
        <time>2022-09-05T21:34:49.484Z</time>
      </trkpt>
      <trkpt lat="45.04596" lon="5.49007">
        <ele>1470.9</ele>
        <time>2022-09-05T21:34:53.892Z</time>
      </trkpt>
      <trkpt lat="45.04672" lon="5.49007">
        <ele>1475.1</ele>
        <time>2022-09-05T21:34:58.327Z</time>
      </trkpt>
      <trkpt lat="45.04812" lon="5.48855">
        <ele>1498.2</ele>
        <time>2022-09-05T21:35:02.812Z</time>
      </trkpt>
      <trkpt lat="45.04856" lon="5.48788">
        <ele>1499.7</ele>
        <time>2022-09-05T21:35:07.345Z</time>
      </trkpt>
      <trkpt lat="45.04893" lon="5.48655">
        <ele>1507.3</ele>
        <time>2022-09-05T21:35:11.912Z</time>
      </trkpt>
      <trkpt lat="45.04868" lon="5.48596">
        <ele>1507.8</ele>
        <time>2022-09-05T21:35:16.510Z</time>
      </trkpt>
      <trkpt lat="45.04574" lon="5.48397">
        <ele>1519.5</ele>
        <time>2022-09-05T21:35:21.183Z</time>
      </trkpt>
      <trkpt lat="45.04487" lon="5.4829">
        <ele>1516</ele>
        <time>2022-09-05T21:35:25.944Z</time>
      </trkpt>
      <trkpt lat="45.04501" lon="5.48367">
        <ele>1510.8</ele>
        <time>2022-09-05T21:35:30.739Z</time>
      </trkpt>
      <trkpt lat="45.0444" lon="5.48322">
        <ele>1492.1</ele>
        <time>2022-09-05T21:35:35.559Z</time>
      </trkpt>
      <trkpt lat="45.04395" lon="5.48241">
        <ele>1484.7</ele>
        <time>2022-09-05T21:35:40.407Z</time>
      </trkpt>
      <trkpt lat="45.04392" lon="5.48145">
        <ele>1476.6</ele>
        <time>2022-09-05T21:35:45.283Z</time>
      </trkpt>
      <trkpt lat="45.045" lon="5.48088">
        <ele>1462.4</ele>
        <time>2022-09-05T21:35:50.196Z</time>
      </trkpt>
      <trkpt lat="45.0468" lon="5.48042">
        <ele>1447.9</ele>
        <time>2022-09-05T21:35:55.169Z</time>
      </trkpt>
      <trkpt lat="45.04942" lon="5.48014">
        <ele>1426.6</ele>
        <time>2022-09-05T21:36:00.231Z</time>
      </trkpt>
      <trkpt lat="45.04941" lon="5.47993">
        <ele>1417.1</ele>
        <time>2022-09-05T21:36:05.348Z</time>
      </trkpt>
      <trkpt lat="45.05008" lon="5.47983">
        <ele>1408.8</ele>
        <time>2022-09-05T21:36:10.482Z</time>
      </trkpt>
      <trkpt lat="45.05093" lon="5.47993">
        <ele>1409.4</ele>
        <time>2022-09-05T21:36:15.647Z</time>
      </trkpt>
      <trkpt lat="45.05023" lon="5.47995">
        <ele>1413</ele>
        <time>2022-09-05T21:36:20.843Z</time>
      </trkpt>
      <trkpt lat="45.04949" lon="5.4797">
        <ele>1407</ele>
        <time>2022-09-05T21:36:26.068Z</time>
      </trkpt>
      <trkpt lat="45.04638" lon="5.47844">
        <ele>1386.3</ele>
        <time>2022-09-05T21:36:31.373Z</time>
      </trkpt>
      <trkpt lat="45.04594" lon="5.47813">
        <ele>1381.1</ele>
        <time>2022-09-05T21:36:36.753Z</time>
      </trkpt>
      <trkpt lat="45.04534" lon="5.47731">
        <ele>1369.6</ele>
        <time>2022-09-05T21:36:42.159Z</time>
      </trkpt>
      <trkpt lat="45.04532" lon="5.47556">
        <ele>1360.4</ele>
        <time>2022-09-05T21:36:47.606Z</time>
      </trkpt>
      <trkpt lat="45.04529" lon="5.47658">
        <ele>1363.6</ele>
        <time>2022-09-05T21:36:53.093Z</time>
      </trkpt>
      <trkpt lat="45.04349" lon="5.47661">
        <ele>1364.6</ele>
        <time>2022-09-05T21:36:58.631Z</time>
      </trkpt>
      <trkpt lat="45.04248" lon="5.47634">
        <ele>1358.5</ele>
        <time>2022-09-05T21:37:04.225Z</time>
      </trkpt>
      <trkpt lat="45.04202" lon="5.47659">
        <ele>1356.7</ele>
        <time>2022-09-05T21:37:09.849Z</time>
      </trkpt>
      <trkpt lat="45.04076" lon="5.47682">
        <ele>1351.2</ele>
        <time>2022-09-05T21:37:15.508Z</time>
      </trkpt>
      <trkpt lat="45.04012" lon="5.47718">
        <ele>1344.4</ele>
        <time>2022-09-05T21:37:21.206Z</time>
      </trkpt>
      <trkpt lat="45.04017" lon="5.47745">
        <ele>1343.9</ele>
        <time>2022-09-05T21:37:26.922Z</time>
      </trkpt>
      <trkpt lat="45.04002" lon="5.47762">
        <ele>1343.1</ele>
        <time>2022-09-05T21:37:32.646Z</time>
      </trkpt>
      <trkpt lat="45.03835" lon="5.47894">
        <ele>1328.5</ele>
        <time>2022-09-05T21:37:38.412Z</time>
      </trkpt>
      <trkpt lat="45.03691" lon="5.4794">
        <ele>1317.4</ele>
        <time>2022-09-05T21:37:44.246Z</time>
      </trkpt>
      <trkpt lat="45.03669" lon="5.47933">
        <ele>1318.6</ele>
        <time>2022-09-05T21:37:50.114Z</time>
      </trkpt>
      <trkpt lat="45.03616" lon="5.47963">
        <ele>1315.8</ele>
        <time>2022-09-05T21:37:55.998Z</time>
      </trkpt>
      <trkpt lat="45.03438" lon="5.47983">
        <ele>1308.3</ele>
        <time>2022-09-05T21:38:01.930Z</time>
      </trkpt>
      <trkpt lat="45.03384" lon="5.47962">
        <ele>1305.5</ele>
        <time>2022-09-05T21:38:07.909Z</time>
      </trkpt>
      <trkpt lat="45.03264" lon="5.47795">
        <ele>1288.8</ele>
        <time>2022-09-05T21:38:13.933Z</time>
      </trkpt>
      <trkpt lat="45.0312" lon="5.47774">
        <ele>1288</ele>
        <time>2022-09-05T21:38:20.019Z</time>
      </trkpt>
      <trkpt lat="45.02998" lon="5.47726">
        <ele>1287.1</ele>
        <time>2022-09-05T21:38:26.159Z</time>
      </trkpt>
      <trkpt lat="45.02823" lon="5.47698">
        <ele>1283.3</ele>
        <time>2022-09-05T21:38:32.360Z</time>
      </trkpt>
      <trkpt lat="45.02687" lon="5.47719">
        <ele>1276.5</ele>
        <time>2022-09-05T21:38:38.623Z</time>
      </trkpt>
      <trkpt lat="45.02427" lon="5.47667">
        <ele>1274.7</ele>
        <time>2022-09-05T21:38:44.966Z</time>
      </trkpt>
      <trkpt lat="45.02093" lon="5.47564">
        <ele>1286.6</ele>
        <time>2022-09-05T21:38:51.430Z</time>
      </trkpt>
      <trkpt lat="45.02059" lon="5.47568">
        <ele>1289.1</ele>
        <time>2022-09-05T21:38:57.969Z</time>
      </trkpt>
      <trkpt lat="45.02037" lon="5.47551">
        <ele>1290.3</ele>
        <time>2022-09-05T21:39:04.520Z</time>
      </trkpt>
      <trkpt lat="45.02021" lon="5.47439">
        <ele>1283.5</ele>
        <time>2022-09-05T21:39:11.092Z</time>
      </trkpt>
      <trkpt lat="45.0198" lon="5.47341">
        <ele>1290.2</ele>
        <time>2022-09-05T21:39:17.697Z</time>
      </trkpt>
      <trkpt lat="45.01795" lon="5.47265">
        <ele>1301.5</ele>
        <time>2022-09-05T21:39:24.357Z</time>
      </trkpt>
      <trkpt lat="45.01732" lon="5.47222">
        <ele>1303</ele>
        <time>2022-09-05T21:39:31.069Z</time>
      </trkpt>
      <trkpt lat="45.01701" lon="5.47221">
        <ele>1303.2</ele>
        <time>2022-09-05T21:39:37.801Z</time>
      </trkpt>
      <trkpt lat="45.01678" lon="5.4724">
        <ele>1301.5</ele>
        <time>2022-09-05T21:39:44.545Z</time>
      </trkpt>
      <trkpt lat="45.0165" lon="5.47222">
        <ele>1303</ele>
        <time>2022-09-05T21:39:51.301Z</time>
      </trkpt>
      <trkpt lat="45.01619" lon="5.47229">
        <ele>1301.2</ele>
        <time>2022-09-05T21:39:58.069Z</time>
      </trkpt>
      <trkpt lat="45.01556" lon="5.47263">
        <ele>1297</ele>
        <time>2022-09-05T21:40:04.857Z</time>
      </trkpt>
      <trkpt lat="45.01512" lon="5.47166">
        <ele>1297.6</ele>
        <time>2022-09-05T21:40:11.675Z</time>
      </trkpt>
      <trkpt lat="45.01448" lon="5.47133">
        <ele>1296.1</ele>
        <time>2022-09-05T21:40:18.523Z</time>
      </trkpt>
      <trkpt lat="45.01434" lon="5.47102">
        <ele>1296.4</ele>
        <time>2022-09-05T21:40:25.390Z</time>
      </trkpt>
      <trkpt lat="45.01443" lon="5.47004">
        <ele>1292.3</ele>
        <time>2022-09-05T21:40:32.276Z</time>
      </trkpt>
      <trkpt lat="45.01546" lon="5.46889">
        <ele>1272</ele>
        <time>2022-09-05T21:40:39.202Z</time>
      </trkpt>
      <trkpt lat="45.01605" lon="5.46865">
        <ele>1275.3</ele>
        <time>2022-09-05T21:40:46.166Z</time>
      </trkpt>
      <trkpt lat="45.01651" lon="5.46816">
        <ele>1264.6</ele>
        <time>2022-09-05T21:40:53.154Z</time>
      </trkpt>
      <trkpt lat="45.01771" lon="5.46651">
        <ele>1239.1</ele>
        <time>2022-09-05T21:41:00.187Z</time>
      </trkpt>
      <trkpt lat="45.01819" lon="5.46532">
        <ele>1214.2</ele>
        <time>2022-09-05T21:41:07.273Z</time>
      </trkpt>
      <trkpt lat="45.01816" lon="5.46454">
        <ele>1199.1</ele>
        <time>2022-09-05T21:41:14.390Z</time>
      </trkpt>
      <trkpt lat="45.01751" lon="5.4645">
        <ele>1199.2</ele>
        <time>2022-09-05T21:41:21.531Z</time>
      </trkpt>
      <trkpt lat="45.01748" lon="5.46538">
        <ele>1201.5</ele>
        <time>2022-09-05T21:41:28.697Z</time>
      </trkpt>
      <trkpt lat="45.01681" lon="5.46615">
        <ele>1192.4</ele>
        <time>2022-09-05T21:41:35.893Z</time>
      </trkpt>
      <trkpt lat="45.01503" lon="5.46694">
        <ele>1155.6</ele>
        <time>2022-09-05T21:41:43.144Z</time>
      </trkpt>
      <trkpt lat="45.01488" lon="5.46695">
        <ele>1152.2</ele>
        <time>2022-09-05T21:41:50.435Z</time>
      </trkpt>
      <trkpt lat="45.01532" lon="5.46632">
        <ele>1144.5</ele>
        <time>2022-09-05T21:41:57.741Z</time>
      </trkpt>
      <trkpt lat="45.01567" lon="5.46538">
        <ele>1144</ele>
        <time>2022-09-05T21:42:05.075Z</time>
      </trkpt>
      <trkpt lat="45.01462" lon="5.4662">
        <ele>1121.7</ele>
        <time>2022-09-05T21:42:12.448Z</time>
      </trkpt>
      <trkpt lat="45.01411" lon="5.46638">
        <ele>1114.5</ele>
        <time>2022-09-05T21:42:19.855Z</time>
      </trkpt>
      <trkpt lat="45.01419" lon="5.46599">
        <ele>1105</ele>
        <time>2022-09-05T21:42:27.279Z</time>
      </trkpt>
      <trkpt lat="45.01347" lon="5.46606">
        <ele>1090.4</ele>
        <time>2022-09-05T21:42:34.723Z</time>
      </trkpt>
      <trkpt lat="45.01386" lon="5.46556">
        <ele>1086.3</ele>
        <time>2022-09-05T21:42:42.192Z</time>
      </trkpt>
      <trkpt lat="45.0115" lon="5.46615">
        <ele>1048</ele>
        <time>2022-09-05T21:42:49.720Z</time>
      </trkpt>
      <trkpt lat="45.00962" lon="5.46605">
        <ele>1029.6</ele>
        <time>2022-09-05T21:42:57.333Z</time>
      </trkpt>
      <trkpt lat="45.00801" lon="5.46556">
        <ele>1001.2</ele>
        <time>2022-09-05T21:43:05.016Z</time>
      </trkpt>
      <trkpt lat="45.00929" lon="5.46536">
        <ele>995</ele>
        <time>2022-09-05T21:43:12.758Z</time>
      </trkpt>
      <trkpt lat="45.01074" lon="5.46489">
        <ele>980.9</ele>
        <time>2022-09-05T21:43:20.556Z</time>
      </trkpt>
      <trkpt lat="45.01084" lon="5.46465">
        <ele>974.1</ele>
        <time>2022-09-05T21:43:28.388Z</time>
      </trkpt>
      <trkpt lat="45.01057" lon="5.46475">
        <ele>973.3</ele>
        <time>2022-09-05T21:43:36.230Z</time>
      </trkpt>
      <trkpt lat="45.00783" lon="5.46382">
        <ele>927.5</ele>
        <time>2022-09-05T21:43:44.134Z</time>
      </trkpt>
      <trkpt lat="45.00698" lon="5.46375">
        <ele>918.8</ele>
        <time>2022-09-05T21:43:52.111Z</time>
      </trkpt>
      <trkpt lat="45.00588" lon="5.46336">
        <ele>905</ele>
        <time>2022-09-05T21:44:00.128Z</time>
      </trkpt>
      <trkpt lat="45.00375" lon="5.46164">
        <ele>856.3</ele>
        <time>2022-09-05T21:44:08.217Z</time>
      </trkpt>
      <trkpt lat="45.00341" lon="5.4616">
        <ele>857.4</ele>
        <time>2022-09-05T21:44:16.362Z</time>
      </trkpt>
      <trkpt lat="45.00265" lon="5.4609">
        <ele>836.6</ele>
        <time>2022-09-05T21:44:24.532Z</time>
      </trkpt>
      <trkpt lat="45.00201" lon="5.46086">
        <ele>834.7</ele>
        <time>2022-09-05T21:44:32.733Z</time>
      </trkpt>
      <trkpt lat="45.00147" lon="5.45991">
        <ele>816.7</ele>
        <time>2022-09-05T21:44:40.964Z</time>
      </trkpt>
      <trkpt lat="45.00136" lon="5.45749">
        <ele>796.8</ele>
        <time>2022-09-05T21:44:49.246Z</time>
      </trkpt>
      <trkpt lat="45.00265" lon="5.45584">
        <ele>770.1</ele>
        <time>2022-09-05T21:44:57.597Z</time>
      </trkpt>
      <trkpt lat="45.00338" lon="5.45204">
        <ele>746.9</ele>
        <time>2022-09-05T21:45:06.039Z</time>
      </trkpt>
      <trkpt lat="45.00329" lon="5.45156">
        <ele>743.8</ele>
        <time>2022-09-05T21:45:14.544Z</time>
      </trkpt>
      <trkpt lat="45.00339" lon="5.45184">
        <ele>744.6</ele>
        <time>2022-09-05T21:45:23.061Z</time>
      </trkpt>
      <trkpt lat="45.00372" lon="5.45167">
        <ele>736.1</ele>
        <time>2022-09-05T21:45:31.590Z</time>
      </trkpt>
      <trkpt lat="45.00434" lon="5.45277">
        <ele>727.2</ele>
        <time>2022-09-05T21:45:40.145Z</time>
      </trkpt>
      <trkpt lat="45.00463" lon="5.45297">
        <ele>723.5</ele>
        <time>2022-09-05T21:45:48.726Z</time>
      </trkpt>
      <trkpt lat="45.00506" lon="5.45182">
        <ele>716</ele>
        <time>2022-09-05T21:45:57.332Z</time>
      </trkpt>
      <trkpt lat="45.00494" lon="5.45133">
        <ele>713.4</ele>
        <time>2022-09-05T21:46:05.964Z</time>
      </trkpt>
      <trkpt lat="45.00506" lon="5.45101">
        <ele>712</ele>
        <time>2022-09-05T21:46:14.609Z</time>
      </trkpt>
      <trkpt lat="45.00433" lon="5.44826">
        <ele>711.4</ele>
        <time>2022-09-05T21:46:23.300Z</time>
      </trkpt>
      <trkpt lat="45.00396" lon="5.44742">
        <ele>711.9</ele>
        <time>2022-09-05T21:46:32.046Z</time>
      </trkpt>
      <trkpt lat="45.00323" lon="5.44762">
        <ele>720.6</ele>
        <time>2022-09-05T21:46:40.821Z</time>
      </trkpt>
      <trkpt lat="45.0021" lon="5.44746">
        <ele>726.5</ele>
        <time>2022-09-05T21:46:49.634Z</time>
      </trkpt>
      <trkpt lat="45.00182" lon="5.4471">
        <ele>729.4</ele>
        <time>2022-09-05T21:46:58.477Z</time>
      </trkpt>
      <trkpt lat="45.00144" lon="5.44693">
        <ele>732.3</ele>
        <time>2022-09-05T21:47:07.336Z</time>
      </trkpt>
      <trkpt lat="45.00045" lon="5.44704">
        <ele>741.1</ele>
        <time>2022-09-05T21:47:16.223Z</time>
      </trkpt>
      <trkpt lat="45.00026" lon="5.44588">
        <ele>745.5</ele>
        <time>2022-09-05T21:47:25.146Z</time>
      </trkpt>
      <trkpt lat="44.99976" lon="5.44474">
        <ele>742.8</ele>
        <time>2022-09-05T21:47:34.105Z</time>
      </trkpt>
      <trkpt lat="45.00002" lon="5.44405">
        <ele>744.9</ele>
        <time>2022-09-05T21:47:43.094Z</time>
      </trkpt>
      <trkpt lat="45.00074" lon="5.44354">
        <ele>740.3</ele>
        <time>2022-09-05T21:47:52.111Z</time>
      </trkpt>
      <trkpt lat="45.0011" lon="5.44292">
        <ele>731.5</ele>
        <time>2022-09-05T21:48:01.156Z</time>
      </trkpt>
      <trkpt lat="45.00115" lon="5.44164">
        <ele>731.3</ele>
        <time>2022-09-05T21:48:10.230Z</time>
      </trkpt>
      <trkpt lat="45.00043" lon="5.44167">
        <ele>725.1</ele>
        <time>2022-09-05T21:48:19.337Z</time>
      </trkpt>
      <trkpt lat="44.99973" lon="5.44196">
        <ele>711.1</ele>
        <time>2022-09-05T21:48:28.473Z</time>
      </trkpt>
      <trkpt lat="44.99908" lon="5.44191">
        <ele>703.2</ele>
        <time>2022-09-05T21:48:37.636Z</time>
      </trkpt>
      <trkpt lat="44.99878" lon="5.44216">
        <ele>701.7</ele>
        <time>2022-09-05T21:48:46.819Z</time>
      </trkpt>
      <trkpt lat="44.99916" lon="5.4409">
        <ele>693.4</ele>
        <time>2022-09-05T21:48:56.029Z</time>
      </trkpt>
      <trkpt lat="44.9991" lon="5.44039">
        <ele>690.2</ele>
        <time>2022-09-05T21:49:05.266Z</time>
      </trkpt>
      <trkpt lat="44.99882" lon="5.44046">
        <ele>691.5</ele>
        <time>2022-09-05T21:49:14.516Z</time>
      </trkpt>
      <trkpt lat="44.99914" lon="5.43775">
        <ele>701.9</ele>
        <time>2022-09-05T21:49:23.811Z</time>
      </trkpt>
      <trkpt lat="44.99994" lon="5.43695">
        <ele>695.4</ele>
        <time>2022-09-05T21:49:33.164Z</time>
      </trkpt>
      <trkpt lat="44.99993" lon="5.43633">
        <ele>704.5</ele>
        <time>2022-09-05T21:49:42.545Z</time>
      </trkpt>
      <trkpt lat="44.99906" lon="5.43573">
        <ele>719.2</ele>
        <time>2022-09-05T21:49:51.955Z</time>
      </trkpt>
      <trkpt lat="44.9987" lon="5.43578">
        <ele>723.3</ele>
        <time>2022-09-05T21:50:01.392Z</time>
      </trkpt>
      <trkpt lat="44.99805" lon="5.43552">
        <ele>718.9</ele>
        <time>2022-09-05T21:50:10.849Z</time>
      </trkpt>
      <trkpt lat="44.99757" lon="5.43579">
        <ele>724.8</ele>
        <time>2022-09-05T21:50:20.330Z</time>
      </trkpt>
      <trkpt lat="44.99638" lon="5.43606">
        <ele>734.5</ele>
        <time>2022-09-05T21:50:29.846Z</time>
      </trkpt>
      <trkpt lat="44.9949" lon="5.43586">
        <ele>740.6</ele>
        <time>2022-09-05T21:50:39.416Z</time>
      </trkpt>
      <trkpt lat="44.99355" lon="5.43495">
        <ele>764.1</ele>
        <time>2022-09-05T21:50:49.045Z</time>
      </trkpt>
      <trkpt lat="44.99296" lon="5.43498">
        <ele>771.8</ele>
        <time>2022-09-05T21:50:58.715Z</time>
      </trkpt>
      <trkpt lat="44.9914" lon="5.43444">
        <ele>797</ele>
        <time>2022-09-05T21:51:08.429Z</time>
      </trkpt>
      <trkpt lat="44.98985" lon="5.4347">
        <ele>815.2</ele>
        <time>2022-09-05T21:51:18.207Z</time>
      </trkpt>
      <trkpt lat="44.98718" lon="5.43397">
        <ele>833.6</ele>
        <time>2022-09-05T21:51:28.071Z</time>
      </trkpt>
      <trkpt lat="44.98533" lon="5.43384">
        <ele>851.8</ele>
        <time>2022-09-05T21:51:38.026Z</time>
      </trkpt>
      <trkpt lat="44.98453" lon="5.43358">
        <ele>855.4</ele>
        <time>2022-09-05T21:51:48.034Z</time>
      </trkpt>
      <trkpt lat="44.98315" lon="5.43371">
        <ele>850.6</ele>
        <time>2022-09-05T21:51:58.086Z</time>
      </trkpt>
      <trkpt lat="44.98167" lon="5.4335">
        <ele>846.8</ele>
        <time>2022-09-05T21:52:08.196Z</time>
      </trkpt>
      <trkpt lat="44.98059" lon="5.433">
        <ele>857.4</ele>
        <time>2022-09-05T21:52:18.359Z</time>
      </trkpt>
      <trkpt lat="44.97763" lon="5.43221">
        <ele>869.3</ele>
        <time>2022-09-05T21:52:28.605Z</time>
      </trkpt>
      <trkpt lat="44.97553" lon="5.43138">
        <ele>877.9</ele>
        <time>2022-09-05T21:52:38.955Z</time>
      </trkpt>
      <trkpt lat="44.97382" lon="5.43021">
        <ele>884.5</ele>
        <time>2022-09-05T21:52:49.387Z</time>
      </trkpt>
      <trkpt lat="44.973" lon="5.43009">
        <ele>883.9</ele>
        <time>2022-09-05T21:52:59.873Z</time>
      </trkpt>
      <trkpt lat="44.97261" lon="5.42981">
        <ele>886</ele>
        <time>2022-09-05T21:53:10.384Z</time>
      </trkpt>
      <trkpt lat="44.97175" lon="5.42958">
        <ele>884.3</ele>
        <time>2022-09-05T21:53:20.921Z</time>
      </trkpt>
      <trkpt lat="44.97116" lon="5.42917">
        <ele>884.2</ele>
        <time>2022-09-05T21:53:31.488Z</time>
      </trkpt>
      <trkpt lat="44.97055" lon="5.42897">
        <ele>882.7</ele>
        <time>2022-09-05T21:53:42.081Z</time>
      </trkpt>
      <trkpt lat="44.96903" lon="5.42906">
        <ele>876.1</ele>
        <time>2022-09-05T21:53:52.717Z</time>
      </trkpt>
      <trkpt lat="44.9686" lon="5.42879">
        <ele>875</ele>
        <time>2022-09-05T21:54:03.393Z</time>
      </trkpt>
      <trkpt lat="44.96801" lon="5.4276">
        <ele>871.2</ele>
        <time>2022-09-05T21:54:14.099Z</time>
      </trkpt>
      <trkpt lat="44.96688" lon="5.42668">
        <ele>869</ele>
        <time>2022-09-05T21:54:24.852Z</time>
      </trkpt>
      <trkpt lat="44.96602" lon="5.42542">
        <ele>870.2</ele>
        <time>2022-09-05T21:54:35.656Z</time>
      </trkpt>
      <trkpt lat="44.96543" lon="5.42383">
        <ele>878.8</ele>
        <time>2022-09-05T21:54:46.510Z</time>
      </trkpt>
      <trkpt lat="44.96437" lon="5.42273">
        <ele>890.5</ele>
        <time>2022-09-05T21:54:57.416Z</time>
      </trkpt>
      <trkpt lat="44.96429" lon="5.42244">
        <ele>893.6</ele>
        <time>2022-09-05T21:55:08.353Z</time>
      </trkpt>
      <trkpt lat="44.96441" lon="5.42224">
        <ele>895.8</ele>
        <time>2022-09-05T21:55:19.298Z</time>
      </trkpt>
      <trkpt lat="44.96512" lon="5.42222">
        <ele>898</ele>
        <time>2022-09-05T21:55:30.261Z</time>
      </trkpt>
      <trkpt lat="44.9653" lon="5.42203">
        <ele>900.1</ele>
        <time>2022-09-05T21:55:41.243Z</time>
      </trkpt>
      <trkpt lat="44.9656" lon="5.42076">
        <ele>901.1</ele>
        <time>2022-09-05T21:55:52.248Z</time>
      </trkpt>
      <trkpt lat="44.96688" lon="5.41768">
        <ele>887.9</ele>
        <time>2022-09-05T21:56:03.323Z</time>
      </trkpt>
      <trkpt lat="44.96839" lon="5.41222">
        <ele>877.6</ele>
        <time>2022-09-05T21:56:14.532Z</time>
      </trkpt>
      <trkpt lat="44.96934" lon="5.41127">
        <ele>867.5</ele>
        <time>2022-09-05T21:56:25.847Z</time>
      </trkpt>
      <trkpt lat="44.96983" lon="5.41112">
        <ele>864.5</ele>
        <time>2022-09-05T21:56:37.195Z</time>
      </trkpt>
      <trkpt lat="44.96996" lon="5.41091">
        <ele>864.6</ele>
        <time>2022-09-05T21:56:48.557Z</time>
      </trkpt>
      <trkpt lat="44.96958" lon="5.40895">
        <ele>856.1</ele>
        <time>2022-09-05T21:56:59.952Z</time>
      </trkpt>
      <trkpt lat="44.96971" lon="5.40823">
        <ele>852.7</ele>
        <time>2022-09-05T21:57:11.387Z</time>
      </trkpt>
      <trkpt lat="44.96928" lon="5.40862">
        <ele>854</ele>
        <time>2022-09-05T21:57:22.843Z</time>
      </trkpt>
      <trkpt lat="44.96926" lon="5.40505">
        <ele>834.7</ele>
        <time>2022-09-05T21:57:34.360Z</time>
      </trkpt>
      <trkpt lat="44.96942" lon="5.40445">
        <ele>833</ele>
        <time>2022-09-05T21:57:45.937Z</time>
      </trkpt>
      <trkpt lat="44.97015" lon="5.4038">
        <ele>829.8</ele>
        <time>2022-09-05T21:57:57.540Z</time>
      </trkpt>
      <trkpt lat="44.97079" lon="5.4013">
        <ele>826.8</ele>
        <time>2022-09-05T21:58:09.198Z</time>
      </trkpt>
      <trkpt lat="44.96851" lon="5.40095">
        <ele>830.2</ele>
        <time>2022-09-05T21:58:20.940Z</time>
      </trkpt>
      <trkpt lat="44.96604" lon="5.40128">
        <ele>834.3</ele>
        <time>2022-09-05T21:58:32.777Z</time>
      </trkpt>
      <trkpt lat="44.9655" lon="5.40096">
        <ele>834.5</ele>
        <time>2022-09-05T21:58:44.675Z</time>
      </trkpt>
      <trkpt lat="44.96497" lon="5.40099">
        <ele>835.6</ele>
        <time>2022-09-05T21:58:56.596Z</time>
      </trkpt>
      <trkpt lat="44.9641" lon="5.40181">
        <ele>838.4</ele>
        <time>2022-09-05T21:59:08.549Z</time>
      </trkpt>
      <trkpt lat="44.96371" lon="5.40183">
        <ele>838.4</ele>
        <time>2022-09-05T21:59:20.530Z</time>
      </trkpt>
      <trkpt lat="44.96174" lon="5.40126">
        <ele>842.4</ele>
        <time>2022-09-05T21:59:32.559Z</time>
      </trkpt>
      <trkpt lat="44.95681" lon="5.40137">
        <ele>855.5</ele>
        <time>2022-09-05T21:59:44.727Z</time>
      </trkpt>
      <trkpt lat="44.95693" lon="5.39995">
        <ele>863.9</ele>
        <time>2022-09-05T21:59:57.014Z</time>
      </trkpt>
      <trkpt lat="44.95727" lon="5.39962">
        <ele>870.4</ele>
        <time>2022-09-05T22:00:09.330Z</time>
      </trkpt>
      <trkpt lat="44.95639" lon="5.39954">
        <ele>871.3</ele>
        <time>2022-09-05T22:00:21.672Z</time>
      </trkpt>
      <trkpt lat="44.95555" lon="5.39925">
        <ele>873.2</ele>
        <time>2022-09-05T22:00:34.049Z</time>
      </trkpt>
      <trkpt lat="44.95448" lon="5.39852">
        <ele>882.7</ele>
        <time>2022-09-05T22:00:46.467Z</time>
      </trkpt>
      <trkpt lat="44.95257" lon="5.3982">
        <ele>894.5</ele>
        <time>2022-09-05T22:00:58.947Z</time>
      </trkpt>
      <trkpt lat="44.95221" lon="5.39846">
        <ele>888.5</ele>
        <time>2022-09-05T22:01:11.473Z</time>
      </trkpt>
      <trkpt lat="44.95142" lon="5.39837">
        <ele>891.3</ele>
        <time>2022-09-05T22:01:24.023Z</time>
      </trkpt>
      <trkpt lat="44.95122" lon="5.39816">
        <ele>893.5</ele>
        <time>2022-09-05T22:01:36.594Z</time>
      </trkpt>
      <trkpt lat="44.95112" lon="5.39718">
        <ele>908.9</ele>
        <time>2022-09-05T22:01:49.184Z</time>
      </trkpt>
      <trkpt lat="44.95037" lon="5.39637">
        <ele>903.2</ele>
        <time>2022-09-05T22:02:01.807Z</time>
      </trkpt>
      <trkpt lat="44.95047" lon="5.39522">
        <ele>911.3</ele>
        <time>2022-09-05T22:02:14.465Z</time>
      </trkpt>
      <trkpt lat="44.95121" lon="5.39249">
        <ele>923.8</ele>
        <time>2022-09-05T22:02:27.181Z</time>
      </trkpt>
      <trkpt lat="44.95114" lon="5.39169">
        <ele>922.4</ele>
        <time>2022-09-05T22:02:39.950Z</time>
      </trkpt>
      <trkpt lat="44.95068" lon="5.39062">
        <ele>929</ele>
        <time>2022-09-05T22:02:52.748Z</time>
      </trkpt>
      <trkpt lat="44.95024" lon="5.39095">
        <ele>933.7</ele>
        <time>2022-09-05T22:03:05.574Z</time>
      </trkpt>
      <trkpt lat="44.94965" lon="5.39109">
        <ele>939.8</ele>
        <time>2022-09-05T22:03:18.422Z</time>
      </trkpt>
      <trkpt lat="44.94963" lon="5.39165">
        <ele>940.4</ele>
        <time>2022-09-05T22:03:31.290Z</time>
      </trkpt>
      <trkpt lat="44.94926" lon="5.39213">
        <ele>941.9</ele>
        <time>2022-09-05T22:03:44.176Z</time>
      </trkpt>
      <trkpt lat="44.94888" lon="5.39331">
        <ele>937.3</ele>
        <time>2022-09-05T22:03:57.090Z</time>
      </trkpt>
      <trkpt lat="44.94836" lon="5.39428">
        <ele>940.9</ele>
        <time>2022-09-05T22:04:10.040Z</time>
      </trkpt>
      <trkpt lat="44.94837" lon="5.39466">
        <ele>938.3</ele>
        <time>2022-09-05T22:04:23.013Z</time>
      </trkpt>
      <trkpt lat="44.94716" lon="5.39522">
        <ele>934.4</ele>
        <time>2022-09-05T22:04:36.017Z</time>
      </trkpt>
      <trkpt lat="44.94755" lon="5.39554">
        <ele>931.9</ele>
        <time>2022-09-05T22:04:49.056Z</time>
      </trkpt>
      <trkpt lat="44.94714" lon="5.39515">
        <ele>934.8</ele>
        <time>2022-09-05T22:05:02.113Z</time>
      </trkpt>
      <trkpt lat="44.9467" lon="5.39542">
        <ele>935.8</ele>
        <time>2022-09-05T22:05:15.189Z</time>
      </trkpt>
      <trkpt lat="44.94421" lon="5.39308">
        <ele>941</ele>
        <time>2022-09-05T22:05:28.335Z</time>
      </trkpt>
      <trkpt lat="44.94374" lon="5.39303">
        <ele>944.8</ele>
        <time>2022-09-05T22:05:41.550Z</time>
      </trkpt>
      <trkpt lat="44.94297" lon="5.39325">
        <ele>951.3</ele>
        <time>2022-09-05T22:05:54.790Z</time>
      </trkpt>
      <trkpt lat="44.94214" lon="5.39407">
        <ele>965.3</ele>
        <time>2022-09-05T22:06:08.066Z</time>
      </trkpt>
      <trkpt lat="44.94189" lon="5.39396">
        <ele>967.7</ele>
        <time>2022-09-05T22:06:21.368Z</time>
      </trkpt>
      <trkpt lat="44.94179" lon="5.39368">
        <ele>968.5</ele>
        <time>2022-09-05T22:06:34.680Z</time>
      </trkpt>
      <trkpt lat="44.94168" lon="5.39404">
        <ele>974.7</ele>
        <time>2022-09-05T22:06:48.002Z</time>
      </trkpt>
      <trkpt lat="44.94192" lon="5.39484">
        <ele>981.6</ele>
        <time>2022-09-05T22:07:01.342Z</time>
      </trkpt>
      <trkpt lat="44.94016" lon="5.39584">
        <ele>987.1</ele>
        <time>2022-09-05T22:07:14.732Z</time>
      </trkpt>
      <trkpt lat="44.93956" lon="5.39714">
        <ele>998.4</ele>
        <time>2022-09-05T22:07:28.182Z</time>
      </trkpt>
      <trkpt lat="44.93862" lon="5.39808">
        <ele>1014.5</ele>
        <time>2022-09-05T22:07:41.677Z</time>
      </trkpt>
      <trkpt lat="44.93838" lon="5.39805">
        <ele>1015.6</ele>
        <time>2022-09-05T22:07:55.200Z</time>
      </trkpt>
      <trkpt lat="44.93815" lon="5.39772">
        <ele>1018.6</ele>
        <time>2022-09-05T22:08:08.735Z</time>
      </trkpt>
      <trkpt lat="44.93432" lon="5.39823">
        <ele>1052.9</ele>
        <time>2022-09-05T22:08:22.354Z</time>
      </trkpt>
      <trkpt lat="44.93396" lon="5.39791">
        <ele>1048.3</ele>
        <time>2022-09-05T22:08:36.058Z</time>
      </trkpt>
      <trkpt lat="44.9335" lon="5.39783">
        <ele>1045.9</ele>
        <time>2022-09-05T22:08:49.779Z</time>
      </trkpt>
      <trkpt lat="44.93308" lon="5.39845">
        <ele>1041.7</ele>
        <time>2022-09-05T22:09:03.522Z</time>
      </trkpt>
      <trkpt lat="44.93114" lon="5.39831">
        <ele>1047.9</ele>
        <time>2022-09-05T22:09:17.316Z</time>
      </trkpt>
      <trkpt lat="44.93039" lon="5.39875">
        <ele>1050.1</ele>
        <time>2022-09-05T22:09:31.165Z</time>
      </trkpt>
      <trkpt lat="44.93006" lon="5.39921">
        <ele>1056.9</ele>
        <time>2022-09-05T22:09:45.040Z</time>
      </trkpt>
      <trkpt lat="44.92932" lon="5.39972">
        <ele>1057.2</ele>
        <time>2022-09-05T22:09:58.940Z</time>
      </trkpt>
      <trkpt lat="44.92881" lon="5.39882">
        <ele>1050.5</ele>
        <time>2022-09-05T22:10:12.873Z</time>
      </trkpt>
      <trkpt lat="44.92844" lon="5.39875">
        <ele>1046.8</ele>
        <time>2022-09-05T22:10:26.830Z</time>
      </trkpt>
      <trkpt lat="44.92791" lon="5.39896">
        <ele>1047</ele>
        <time>2022-09-05T22:10:40.805Z</time>
      </trkpt>
      <trkpt lat="44.92788" lon="5.3994">
        <ele>1051.4</ele>
        <time>2022-09-05T22:10:54.797Z</time>
      </trkpt>
      <trkpt lat="44.92699" lon="5.40056">
        <ele>1046</ele>
        <time>2022-09-05T22:11:08.820Z</time>
      </trkpt>
      <trkpt lat="44.92677" lon="5.4004">
        <ele>1044.6</ele>
        <time>2022-09-05T22:11:22.873Z</time>
      </trkpt>
      <trkpt lat="44.92639" lon="5.40056">
        <ele>1042</ele>
        <time>2022-09-05T22:11:36.939Z</time>
      </trkpt>
      <trkpt lat="44.926" lon="5.40016">
        <ele>1047.2</ele>
        <time>2022-09-05T22:11:51.022Z</time>
      </trkpt>
      <trkpt lat="44.92558" lon="5.39929">
        <ele>1049.3</ele>
        <time>2022-09-05T22:12:05.129Z</time>
      </trkpt>
      <trkpt lat="44.92452" lon="5.39846">
        <ele>1049.8</ele>
        <time>2022-09-05T22:12:19.276Z</time>
      </trkpt>
      <trkpt lat="44.92401" lon="5.3983">
        <ele>1048.1</ele>
        <time>2022-09-05T22:12:33.458Z</time>
      </trkpt>
      <trkpt lat="44.92379" lon="5.39836">
        <ele>1047.8</ele>
        <time>2022-09-05T22:12:47.654Z</time>
      </trkpt>
      <trkpt lat="44.92359" lon="5.39905">
        <ele>1050.4</ele>
        <time>2022-09-05T22:13:01.865Z</time>
      </trkpt>
      <trkpt lat="44.92297" lon="5.39986">
        <ele>1048.1</ele>
        <time>2022-09-05T22:13:16.104Z</time>
      </trkpt>
      <trkpt lat="44.92286" lon="5.4007">
        <ele>1049.1</ele>
        <time>2022-09-05T22:13:30.372Z</time>
      </trkpt>
      <trkpt lat="44.92215" lon="5.40092">
        <ele>1049.8</ele>
        <time>2022-09-05T22:13:44.667Z</time>
      </trkpt>
      <trkpt lat="44.92154" lon="5.4002">
        <ele>1048.9</ele>
        <time>2022-09-05T22:13:58.993Z</time>
      </trkpt>
      <trkpt lat="44.92016" lon="5.39949">
        <ele>1061.9</ele>
        <time>2022-09-05T22:14:13.364Z</time>
      </trkpt>
      <trkpt lat="44.91893" lon="5.3992">
        <ele>1060.8</ele>
        <time>2022-09-05T22:14:27.789Z</time>
      </trkpt>
      <trkpt lat="44.91782" lon="5.39936">
        <ele>1059</ele>
        <time>2022-09-05T22:14:42.261Z</time>
      </trkpt>
      <trkpt lat="44.91731" lon="5.39964">
        <ele>1058.3</ele>
        <time>2022-09-05T22:14:56.766Z</time>
      </trkpt>
      <trkpt lat="44.91716" lon="5.4004">
        <ele>1050.6</ele>
        <time>2022-09-05T22:15:11.294Z</time>
      </trkpt>
      <trkpt lat="44.9157" lon="5.40214">
        <ele>1055.2</ele>
        <time>2022-09-05T22:15:25.872Z</time>
      </trkpt>
      <trkpt lat="44.91592" lon="5.40299">
        <ele>1055.2</ele>
        <time>2022-09-05T22:15:40.501Z</time>
      </trkpt>
      <trkpt lat="44.91557" lon="5.40473">
        <ele>1060.9</ele>
        <time>2022-09-05T22:15:55.168Z</time>
      </trkpt>
      <trkpt lat="44.915" lon="5.40522">
        <ele>1071.2</ele>
        <time>2022-09-05T22:16:09.874Z</time>
      </trkpt>
      <trkpt lat="44.91409" lon="5.40644">
        <ele>1079.3</ele>
        <time>2022-09-05T22:16:24.619Z</time>
      </trkpt>
      <trkpt lat="44.91364" lon="5.40642">
        <ele>1082.6</ele>
        <time>2022-09-05T22:16:39.398Z</time>
      </trkpt>
      <trkpt lat="44.91266" lon="5.40582">
        <ele>1098</ele>
        <time>2022-09-05T22:16:54.207Z</time>
      </trkpt>
      <trkpt lat="44.91195" lon="5.40592">
        <ele>1101.3</ele>
        <time>2022-09-05T22:17:09.051Z</time>
      </trkpt>
      <trkpt lat="44.91097" lon="5.4053">
        <ele>1109.4</ele>
        <time>2022-09-05T22:17:23.931Z</time>
      </trkpt>
      <trkpt lat="44.91027" lon="5.40506">
        <ele>1108.2</ele>
        <time>2022-09-05T22:17:38.847Z</time>
      </trkpt>
      <trkpt lat="44.90939" lon="5.40532">
        <ele>1107.8</ele>
        <time>2022-09-05T22:17:53.795Z</time>
      </trkpt>
      <trkpt lat="44.90849" lon="5.404">
        <ele>1092.3</ele>
        <time>2022-09-05T22:18:08.787Z</time>
      </trkpt>
      <trkpt lat="44.90801" lon="5.4038">
        <ele>1093.5</ele>
        <time>2022-09-05T22:18:23.815Z</time>
      </trkpt>
      <trkpt lat="44.9075" lon="5.40385">
        <ele>1093.6</ele>
        <time>2022-09-05T22:18:38.863Z</time>
      </trkpt>
      <trkpt lat="44.90553" lon="5.40342">
        <ele>1074.7</ele>
        <time>2022-09-05T22:18:53.961Z</time>
      </trkpt>
      <trkpt lat="44.90534" lon="5.40433">
        <ele>1082.3</ele>
        <time>2022-09-05T22:19:09.113Z</time>
      </trkpt>
      <trkpt lat="44.9045" lon="5.40474">
        <ele>1089.9</ele>
        <time>2022-09-05T22:19:24.297Z</time>
      </trkpt>
      <trkpt lat="44.90384" lon="5.40444">
        <ele>1095.7</ele>
        <time>2022-09-05T22:19:39.513Z</time>
      </trkpt>
      <trkpt lat="44.90365" lon="5.40308">
        <ele>1095.5</ele>
        <time>2022-09-05T22:19:54.762Z</time>
      </trkpt>
      <trkpt lat="44.9019" lon="5.40266">
        <ele>1114</ele>
        <time>2022-09-05T22:20:10.066Z</time>
      </trkpt>
      <trkpt lat="44.90176" lon="5.40222">
        <ele>1109.3</ele>
        <time>2022-09-05T22:20:25.413Z</time>
      </trkpt>
      <trkpt lat="44.90095" lon="5.40117">
        <ele>1097</ele>
        <time>2022-09-05T22:20:40.789Z</time>
      </trkpt>
      <trkpt lat="44.90045" lon="5.40086">
        <ele>1092.4</ele>
        <time>2022-09-05T22:20:56.198Z</time>
      </trkpt>
      <trkpt lat="44.90045" lon="5.40062">
        <ele>1088.9</ele>
        <time>2022-09-05T22:21:11.621Z</time>
      </trkpt>
      <trkpt lat="44.90126" lon="5.40016">
        <ele>1080.8</ele>
        <time>2022-09-05T22:21:27.064Z</time>
      </trkpt>
      <trkpt lat="44.90106" lon="5.39951">
        <ele>1073.9</ele>
        <time>2022-09-05T22:21:42.535Z</time>
      </trkpt>
      <trkpt lat="44.90093" lon="5.39772">
        <ele>1066.8</ele>
        <time>2022-09-05T22:21:58.042Z</time>
      </trkpt>
      <trkpt lat="44.90074" lon="5.39733">
        <ele>1065.5</ele>
        <time>2022-09-05T22:22:13.581Z</time>
      </trkpt>
      <trkpt lat="44.90075" lon="5.39666">
        <ele>1062.4</ele>
        <time>2022-09-05T22:22:29.136Z</time>
      </trkpt>
      <trkpt lat="44.90114" lon="5.39524">
        <ele>1058.7</ele>
        <time>2022-09-05T22:22:44.722Z</time>
      </trkpt>
      <trkpt lat="44.90108" lon="5.39415">
        <ele>1061.9</ele>
        <time>2022-09-05T22:23:00.345Z</time>
      </trkpt>
      <trkpt lat="44.90175" lon="5.39149">
        <ele>1062.2</ele>
        <time>2022-09-05T22:23:16.024Z</time>
      </trkpt>
      <trkpt lat="44.90173" lon="5.39077">
        <ele>1057.3</ele>
        <time>2022-09-05T22:23:31.754Z</time>
      </trkpt>
      <trkpt lat="44.90191" lon="5.39021">
        <ele>1056.9</ele>
        <time>2022-09-05T22:23:47.503Z</time>
      </trkpt>
      <trkpt lat="44.90048" lon="5.39056">
        <ele>1061.6</ele>
        <time>2022-09-05T22:24:03.290Z</time>
      </trkpt>
      <trkpt lat="44.89968" lon="5.39169">
        <ele>1062</ele>
        <time>2022-09-05T22:24:19.128Z</time>
      </trkpt>
      <trkpt lat="44.89905" lon="5.39226">
        <ele>1058.3</ele>
        <time>2022-09-05T22:24:35.003Z</time>
      </trkpt>
      <trkpt lat="44.89879" lon="5.39187">
        <ele>1056.1</ele>
        <time>2022-09-05T22:24:50.901Z</time>
      </trkpt>
      <trkpt lat="44.89811" lon="5.39175">
        <ele>1053.3</ele>
        <time>2022-09-05T22:25:06.820Z</time>
      </trkpt>
      <trkpt lat="44.89772" lon="5.3914">
        <ele>1053.2</ele>
        <time>2022-09-05T22:25:22.762Z</time>
      </trkpt>
      <trkpt lat="44.89749" lon="5.39099">
        <ele>1053</ele>
        <time>2022-09-05T22:25:38.721Z</time>
      </trkpt>
      <trkpt lat="44.89496" lon="5.38831">
        <ele>1056.1</ele>
        <time>2022-09-05T22:25:54.751Z</time>
      </trkpt>
      <trkpt lat="44.89604" lon="5.38454">
        <ele>1059.3</ele>
        <time>2022-09-05T22:26:10.902Z</time>
      </trkpt>
      <trkpt lat="44.89652" lon="5.38191">
        <ele>1059.1</ele>
        <time>2022-09-05T22:26:27.149Z</time>
      </trkpt>
      <trkpt lat="44.89645" lon="5.38072">
        <ele>1058.1</ele>
        <time>2022-09-05T22:26:43.452Z</time>
      </trkpt>
      <trkpt lat="44.8966" lon="5.37996">
        <ele>1057.9</ele>
        <time>2022-09-05T22:26:59.783Z</time>
      </trkpt>
      <trkpt lat="44.89608" lon="5.37715">
        <ele>1056</ele>
        <time>2022-09-05T22:27:16.167Z</time>
      </trkpt>
      <trkpt lat="44.8966" lon="5.37483">
        <ele>1054.1</ele>
        <time>2022-09-05T22:27:32.627Z</time>
      </trkpt>
      <trkpt lat="44.89661" lon="5.37418">
        <ele>1052.1</ele>
        <time>2022-09-05T22:27:49.130Z</time>
      </trkpt>
      <trkpt lat="44.8965" lon="5.37358">
        <ele>1052</ele>
        <time>2022-09-05T22:28:05.651Z</time>
      </trkpt>
      <trkpt lat="44.89588" lon="5.37279">
        <ele>1056.7</ele>
        <time>2022-09-05T22:28:22.198Z</time>
      </trkpt>
      <trkpt lat="44.89544" lon="5.37068">
        <ele>1055.2</ele>
        <time>2022-09-05T22:28:38.793Z</time>
      </trkpt>
      <trkpt lat="44.89533" lon="5.36891">
        <ele>1058.1</ele>
        <time>2022-09-05T22:28:55.444Z</time>
      </trkpt>
      <trkpt lat="44.89559" lon="5.36572">
        <ele>1054.8</ele>
        <time>2022-09-05T22:29:12.166Z</time>
      </trkpt>
      <trkpt lat="44.89458" lon="5.36581">
        <ele>1056.6</ele>
        <time>2022-09-05T22:29:28.954Z</time>
      </trkpt>
      <trkpt lat="44.89355" lon="5.36541">
        <ele>1055.4</ele>
        <time>2022-09-05T22:29:45.784Z</time>
      </trkpt>
      <trkpt lat="44.89107" lon="5.36602">
        <ele>1056.7</ele>
        <time>2022-09-05T22:30:02.686Z</time>
      </trkpt>
      <trkpt lat="44.88813" lon="5.36617">
        <ele>1058.2</ele>
        <time>2022-09-05T22:30:19.697Z</time>
      </trkpt>
      <trkpt lat="44.88658" lon="5.36584">
        <ele>1059</ele>
        <time>2022-09-05T22:30:36.798Z</time>
      </trkpt>
      <trkpt lat="44.88562" lon="5.36517">
        <ele>1059.4</ele>
        <time>2022-09-05T22:30:53.952Z</time>
      </trkpt>
      <trkpt lat="44.88475" lon="5.36482">
        <ele>1062.5</ele>
        <time>2022-09-05T22:31:11.146Z</time>
      </trkpt>
      <trkpt lat="44.88423" lon="5.36432">
        <ele>1071.2</ele>
        <time>2022-09-05T22:31:28.370Z</time>
      </trkpt>
      <trkpt lat="44.8828" lon="5.36398">
        <ele>1079.1</ele>
        <time>2022-09-05T22:31:45.635Z</time>
      </trkpt>
      <trkpt lat="44.88225" lon="5.36362">
        <ele>1079.1</ele>
        <time>2022-09-05T22:32:02.941Z</time>
      </trkpt>
      <trkpt lat="44.88125" lon="5.36395">
        <ele>1081.6</ele>
        <time>2022-09-05T22:32:20.280Z</time>
      </trkpt>
      <trkpt lat="44.88078" lon="5.36342">
        <ele>1087.8</ele>
        <time>2022-09-05T22:32:37.652Z</time>
      </trkpt>
      <trkpt lat="44.88024" lon="5.36209">
        <ele>1104.1</ele>
        <time>2022-09-05T22:32:55.058Z</time>
      </trkpt>
      <trkpt lat="44.87978" lon="5.36223">
        <ele>1105.6</ele>
        <time>2022-09-05T22:33:12.495Z</time>
      </trkpt>
      <trkpt lat="44.87912" lon="5.36209">
        <ele>1108.6</ele>
        <time>2022-09-05T22:33:29.955Z</time>
      </trkpt>
      <trkpt lat="44.87882" lon="5.36178">
        <ele>1110.8</ele>
        <time>2022-09-05T22:33:47.436Z</time>
      </trkpt>
      <trkpt lat="44.87773" lon="5.36125">
        <ele>1114.5</ele>
        <time>2022-09-05T22:34:04.947Z</time>
      </trkpt>
      <trkpt lat="44.87777" lon="5.36109">
        <ele>1115.1</ele>
        <time>2022-09-05T22:34:22.484Z</time>
      </trkpt>
      <trkpt lat="44.87556" lon="5.36005">
        <ele>1125.6</ele>
        <time>2022-09-05T22:34:40.070Z</time>
      </trkpt>
      <trkpt lat="44.87389" lon="5.35886">
        <ele>1136.2</ele>
        <time>2022-09-05T22:34:57.740Z</time>
      </trkpt>
      <trkpt lat="44.87143" lon="5.35774">
        <ele>1150.3</ele>
        <time>2022-09-05T22:35:15.499Z</time>
      </trkpt>
      <trkpt lat="44.87132" lon="5.35743">
        <ele>1152.5</ele>
        <time>2022-09-05T22:35:33.314Z</time>
      </trkpt>
      <trkpt lat="44.8703" lon="5.35644">
        <ele>1160.6</ele>
        <time>2022-09-05T22:35:51.159Z</time>
      </trkpt>
      <trkpt lat="44.87014" lon="5.35646">
        <ele>1161</ele>
        <time>2022-09-05T22:36:09.032Z</time>
      </trkpt>
      <trkpt lat="44.87008" lon="5.35683">
        <ele>1158.5</ele>
        <time>2022-09-05T22:36:26.914Z</time>
      </trkpt>
      <trkpt lat="44.87057" lon="5.36044">
        <ele>1138.4</ele>
        <time>2022-09-05T22:36:44.854Z</time>
      </trkpt>
      <trkpt lat="44.87021" lon="5.36097">
        <ele>1137.5</ele>
        <time>2022-09-05T22:37:02.856Z</time>
      </trkpt>
      <trkpt lat="44.87005" lon="5.36098">
        <ele>1137.5</ele>
        <time>2022-09-05T22:37:20.871Z</time>
      </trkpt>
      <trkpt lat="44.86908" lon="5.35968">
        <ele>1140.2</ele>
        <time>2022-09-05T22:37:38.916Z</time>
      </trkpt>
      <trkpt lat="44.86817" lon="5.35773">
        <ele>1143.8</ele>
        <time>2022-09-05T22:37:57.021Z</time>
      </trkpt>
      <trkpt lat="44.86546" lon="5.35745">
        <ele>1165</ele>
        <time>2022-09-05T22:38:15.214Z</time>
      </trkpt>
      <trkpt lat="44.86359" lon="5.35694">
        <ele>1189.3</ele>
        <time>2022-09-05T22:38:33.500Z</time>
      </trkpt>
      <trkpt lat="44.86332" lon="5.35715">
        <ele>1191.7</ele>
        <time>2022-09-05T22:38:51.830Z</time>
      </trkpt>
      <trkpt lat="44.86151" lon="5.3556">
        <ele>1220.3</ele>
        <time>2022-09-05T22:39:10.208Z</time>
      </trkpt>
      <trkpt lat="44.86077" lon="5.35544">
        <ele>1230</ele>
        <time>2022-09-05T22:39:28.644Z</time>
      </trkpt>
      <trkpt lat="44.85971" lon="5.35478">
        <ele>1243.9</ele>
        <time>2022-09-05T22:39:47.119Z</time>
      </trkpt>
      <trkpt lat="44.85936" lon="5.35491">
        <ele>1245.2</ele>
        <time>2022-09-05T22:40:05.624Z</time>
      </trkpt>
      <trkpt lat="44.85895" lon="5.35458">
        <ele>1249.2</ele>
        <time>2022-09-05T22:40:24.145Z</time>
      </trkpt>
      <trkpt lat="44.85886" lon="5.35502">
        <ele>1247.1</ele>
        <time>2022-09-05T22:40:42.682Z</time>
      </trkpt>
      <trkpt lat="44.85845" lon="5.35457">
        <ele>1250.5</ele>
        <time>2022-09-05T22:41:01.236Z</time>
      </trkpt>
      <trkpt lat="44.85664" lon="5.35406">
        <ele>1246.4</ele>
        <time>2022-09-05T22:41:19.837Z</time>
      </trkpt>
      <trkpt lat="44.85513" lon="5.35434">
        <ele>1240.7</ele>
        <time>2022-09-05T22:41:38.505Z</time>
      </trkpt>
      <trkpt lat="44.85441" lon="5.35376">
        <ele>1238.1</ele>
        <time>2022-09-05T22:41:57.220Z</time>
      </trkpt>
      <trkpt lat="44.85289" lon="5.35309">
        <ele>1247.7</ele>
        <time>2022-09-05T22:42:15.984Z</time>
      </trkpt>
      <trkpt lat="44.85228" lon="5.35241">
        <ele>1253.6</ele>
        <time>2022-09-05T22:42:34.796Z</time>
      </trkpt>
      <trkpt lat="44.85167" lon="5.35129">
        <ele>1258.4</ele>
        <time>2022-09-05T22:42:53.644Z</time>
      </trkpt>
      <trkpt lat="44.85032" lon="5.35025">
        <ele>1268.8</ele>
        <time>2022-09-05T22:43:12.542Z</time>
      </trkpt>
      <trkpt lat="44.84981" lon="5.34957">
        <ele>1275.4</ele>
        <time>2022-09-05T22:43:31.484Z</time>
      </trkpt>
      <trkpt lat="44.84796" lon="5.34845">
        <ele>1291.8</ele>
        <time>2022-09-05T22:43:50.481Z</time>
      </trkpt>
      <trkpt lat="44.84696" lon="5.34671">
        <ele>1300</ele>
        <time>2022-09-05T22:44:09.551Z</time>
      </trkpt>
      <trkpt lat="44.84488" lon="5.34587">
        <ele>1319</ele>
        <time>2022-09-05T22:44:28.696Z</time>
      </trkpt>
      <trkpt lat="44.84411" lon="5.34503">
        <ele>1327.2</ele>
        <time>2022-09-05T22:44:47.903Z</time>
      </trkpt>
      <trkpt lat="44.84257" lon="5.34509">
        <ele>1343.6</ele>
        <time>2022-09-05T22:45:07.160Z</time>
      </trkpt>
      <trkpt lat="44.84157" lon="5.3442">
        <ele>1355.6</ele>
        <time>2022-09-05T22:45:26.472Z</time>
      </trkpt>
      <trkpt lat="44.84052" lon="5.34361">
        <ele>1362.4</ele>
        <time>2022-09-05T22:45:45.830Z</time>
      </trkpt>
      <trkpt lat="44.84025" lon="5.34323">
        <ele>1367.4</ele>
        <time>2022-09-05T22:46:05.218Z</time>
      </trkpt>
      <trkpt lat="44.84" lon="5.34336">
        <ele>1369</ele>
        <time>2022-09-05T22:46:24.619Z</time>
      </trkpt>
      <trkpt lat="44.84008" lon="5.34367">
        <ele>1368.2</ele>
        <time>2022-09-05T22:46:44.030Z</time>
      </trkpt>
      <trkpt lat="44.84246" lon="5.34653">
        <ele>1359.7</ele>
        <time>2022-09-05T22:47:03.509Z</time>
      </trkpt>
      <trkpt lat="44.84244" lon="5.34669">
        <ele>1360.1</ele>
        <time>2022-09-05T22:47:23.053Z</time>
      </trkpt>
      <trkpt lat="44.84168" lon="5.34702">
        <ele>1359.2</ele>
        <time>2022-09-05T22:47:42.615Z</time>
      </trkpt>
      <trkpt lat="44.84075" lon="5.34715">
        <ele>1360.1</ele>
        <time>2022-09-05T22:48:02.212Z</time>
      </trkpt>
      <trkpt lat="44.84023" lon="5.34793">
        <ele>1354.9</ele>
        <time>2022-09-05T22:48:21.843Z</time>
      </trkpt>
      <trkpt lat="44.84023" lon="5.34851">
        <ele>1353</ele>
        <time>2022-09-05T22:48:41.497Z</time>
      </trkpt>
      <trkpt lat="44.84086" lon="5.35041">
        <ele>1348.8</ele>
        <time>2022-09-05T22:49:01.189Z</time>
      </trkpt>
      <trkpt lat="44.8409" lon="5.35208">
        <ele>1345.8</ele>
        <time>2022-09-05T22:49:20.935Z</time>
      </trkpt>
      <trkpt lat="44.83996" lon="5.35269">
        <ele>1343.7</ele>
        <time>2022-09-05T22:49:40.725Z</time>
      </trkpt>
      <trkpt lat="44.83926" lon="5.35281">
        <ele>1341.9</ele>
        <time>2022-09-05T22:50:00.549Z</time>
      </trkpt>
      <trkpt lat="44.83788" lon="5.35225">
        <ele>1337.4</ele>
        <time>2022-09-05T22:50:20.416Z</time>
      </trkpt>
      <trkpt lat="44.83756" lon="5.35179">
        <ele>1337.9</ele>
        <time>2022-09-05T22:50:40.321Z</time>
      </trkpt>
      <trkpt lat="44.83682" lon="5.34998">
        <ele>1337.5</ele>
        <time>2022-09-05T22:51:00.265Z</time>
      </trkpt>
      <trkpt lat="44.83644" lon="5.34967">
        <ele>1334.6</ele>
        <time>2022-09-05T22:51:20.248Z</time>
      </trkpt>
      <trkpt lat="44.83609" lon="5.34799">
        <ele>1344.2</ele>
        <time>2022-09-05T22:51:40.265Z</time>
      </trkpt>
      <trkpt lat="44.83494" lon="5.34666">
        <ele>1363.7</ele>
        <time>2022-09-05T22:52:00.336Z</time>
      </trkpt>
      <trkpt lat="44.83454" lon="5.34574">
        <ele>1374.9</ele>
        <time>2022-09-05T22:52:20.452Z</time>
      </trkpt>
      <trkpt lat="44.83307" lon="5.34531">
        <ele>1416.9</ele>
        <time>2022-09-05T22:52:40.614Z</time>
      </trkpt>
      <trkpt lat="44.83266" lon="5.34485">
        <ele>1425.5</ele>
        <time>2022-09-05T22:53:00.816Z</time>
      </trkpt>
      <trkpt lat="44.8323" lon="5.34493">
        <ele>1427.3</ele>
        <time>2022-09-05T22:53:21.036Z</time>
      </trkpt>
      <trkpt lat="44.83227" lon="5.34459">
        <ele>1429.2</ele>
        <time>2022-09-05T22:53:41.268Z</time>
      </trkpt>
      <trkpt lat="44.83229" lon="5.3451">
        <ele>1426.6</ele>
        <time>2022-09-05T22:54:01.512Z</time>
      </trkpt>
      <trkpt lat="44.83192" lon="5.34494">
        <ele>1413.7</ele>
        <time>2022-09-05T22:54:21.771Z</time>
      </trkpt>
      <trkpt lat="44.83187" lon="5.34508">
        <ele>1410</ele>
        <time>2022-09-05T22:54:42.040Z</time>
      </trkpt>
      <trkpt lat="44.83126" lon="5.34418">
        <ele>1374.1</ele>
        <time>2022-09-05T22:55:02.329Z</time>
      </trkpt>
      <trkpt lat="44.83069" lon="5.34219">
        <ele>1362.3</ele>
        <time>2022-09-05T22:55:22.666Z</time>
      </trkpt>
      <trkpt lat="44.8302" lon="5.34138">
        <ele>1340.6</ele>
        <time>2022-09-05T22:55:43.049Z</time>
      </trkpt>
      <trkpt lat="44.82911" lon="5.3407">
        <ele>1295.5</ele>
        <time>2022-09-05T22:56:03.471Z</time>
      </trkpt>
      <trkpt lat="44.82871" lon="5.34084">
        <ele>1269.2</ele>
        <time>2022-09-05T22:56:23.925Z</time>
      </trkpt>
      <trkpt lat="44.82853" lon="5.3403">
        <ele>1271</ele>
        <time>2022-09-05T22:56:44.395Z</time>
      </trkpt>
      <trkpt lat="44.82728" lon="5.33994">
        <ele>1231.7</ele>
        <time>2022-09-05T22:57:04.899Z</time>
      </trkpt>
      <trkpt lat="44.82718" lon="5.3393">
        <ele>1241.6</ele>
        <time>2022-09-05T22:57:25.438Z</time>
      </trkpt>
      <trkpt lat="44.82684" lon="5.33954">
        <ele>1218.6</ele>
        <time>2022-09-05T22:57:45.994Z</time>
      </trkpt>
      <trkpt lat="44.82579" lon="5.33917">
        <ele>1199.1</ele>
        <time>2022-09-05T22:58:06.580Z</time>
      </trkpt>
      <trkpt lat="44.82483" lon="5.33851">
        <ele>1179.9</ele>
        <time>2022-09-05T22:58:27.209Z</time>
      </trkpt>
      <trkpt lat="44.82422" lon="5.33785">
        <ele>1159.6</ele>
        <time>2022-09-05T22:58:47.874Z</time>
      </trkpt>
      <trkpt lat="44.82337" lon="5.33735">
        <ele>1116.6</ele>
        <time>2022-09-05T22:59:08.573Z</time>
      </trkpt>
      <trkpt lat="44.82329" lon="5.33716">
        <ele>1113.2</ele>
        <time>2022-09-05T22:59:29.294Z</time>
      </trkpt>
      <trkpt lat="44.82322" lon="5.3375">
        <ele>1104.2</ele>
        <time>2022-09-05T22:59:50.023Z</time>
      </trkpt>
      <trkpt lat="44.82289" lon="5.33739">
        <ele>1083.7</ele>
        <time>2022-09-05T23:00:10.764Z</time>
      </trkpt>
      <trkpt lat="44.8229" lon="5.33757">
        <ele>1082.1</ele>
        <time>2022-09-05T23:00:31.514Z</time>
      </trkpt>
      <trkpt lat="44.82268" lon="5.33736">
        <ele>1069.6</ele>
        <time>2022-09-05T23:00:52.272Z</time>
      </trkpt>
      <trkpt lat="44.82264" lon="5.33776">
        <ele>1062.8</ele>
        <time>2022-09-05T23:01:13.041Z</time>
      </trkpt>
      <trkpt lat="44.82239" lon="5.33736">
        <ele>1049.7</ele>
        <time>2022-09-05T23:01:33.823Z</time>
      </trkpt>
      <trkpt lat="44.82256" lon="5.33636">
        <ele>1057.2</ele>
        <time>2022-09-05T23:01:54.628Z</time>
      </trkpt>
      <trkpt lat="44.82222" lon="5.33614">
        <ele>1050.9</ele>
        <time>2022-09-05T23:02:15.455Z</time>
      </trkpt>
      <trkpt lat="44.82146" lon="5.33618">
        <ele>1029.9</ele>
        <time>2022-09-05T23:02:36.304Z</time>
      </trkpt>
      <trkpt lat="44.82105" lon="5.33385">
        <ele>1033.3</ele>
        <time>2022-09-05T23:02:57.202Z</time>
      </trkpt>
      <trkpt lat="44.82115" lon="5.33345">
        <ele>1039.9</ele>
        <time>2022-09-05T23:03:18.140Z</time>
      </trkpt>
      <trkpt lat="44.82101" lon="5.33318">
        <ele>1034.4</ele>
        <time>2022-09-05T23:03:39.089Z</time>
      </trkpt>
      <trkpt lat="44.82076" lon="5.33317">
        <ele>1022</ele>
        <time>2022-09-05T23:04:00.048Z</time>
      </trkpt>
      <trkpt lat="44.82065" lon="5.33287">
        <ele>1021.8</ele>
        <time>2022-09-05T23:04:21.017Z</time>
      </trkpt>
      <trkpt lat="44.82057" lon="5.33152">
        <ele>1026</ele>
        <time>2022-09-05T23:04:42.010Z</time>
      </trkpt>
      <trkpt lat="44.82063" lon="5.33104">
        <ele>1023.1</ele>
        <time>2022-09-05T23:05:03.029Z</time>
      </trkpt>
      <trkpt lat="44.82101" lon="5.33068">
        <ele>1029.4</ele>
        <time>2022-09-05T23:05:24.064Z</time>
      </trkpt>
      <trkpt lat="44.82071" lon="5.33011">
        <ele>1014.8</ele>
        <time>2022-09-05T23:05:45.118Z</time>
      </trkpt>
      <trkpt lat="44.82089" lon="5.32841">
        <ele>1000.6</ele>
        <time>2022-09-05T23:06:06.207Z</time>
      </trkpt>
      <trkpt lat="44.82176" lon="5.32821">
        <ele>1020.6</ele>
        <time>2022-09-05T23:06:27.338Z</time>
      </trkpt>
      <trkpt lat="44.82176" lon="5.32742">
        <ele>1018.7</ele>
        <time>2022-09-05T23:06:48.498Z</time>
      </trkpt>
      <trkpt lat="44.82104" lon="5.32627">
        <ele>1003.8</ele>
        <time>2022-09-05T23:07:09.691Z</time>
      </trkpt>
      <trkpt lat="44.82069" lon="5.32523">
        <ele>1001.9</ele>
        <time>2022-09-05T23:07:30.922Z</time>
      </trkpt>
      <trkpt lat="44.82034" lon="5.32482">
        <ele>997.6</ele>
        <time>2022-09-05T23:07:52.179Z</time>
      </trkpt>
      <trkpt lat="44.81946" lon="5.32447">
        <ele>979.7</ele>
        <time>2022-09-05T23:08:13.463Z</time>
      </trkpt>
      <trkpt lat="44.81891" lon="5.324">
        <ele>976.8</ele>
        <time>2022-09-05T23:08:34.778Z</time>
      </trkpt>
      <trkpt lat="44.81772" lon="5.32373">
        <ele>952</ele>
        <time>2022-09-05T23:08:56.130Z</time>
      </trkpt>
      <trkpt lat="44.8166" lon="5.32202">
        <ele>932.6</ele>
        <time>2022-09-05T23:09:17.539Z</time>
      </trkpt>
      <trkpt lat="44.81676" lon="5.32167">
        <ele>934.1</ele>
        <time>2022-09-05T23:09:38.987Z</time>
      </trkpt>
      <trkpt lat="44.81821" lon="5.32082">
        <ele>927.1</ele>
        <time>2022-09-05T23:10:00.472Z</time>
      </trkpt>
      <trkpt lat="44.81825" lon="5.32063">
        <ele>918.3</ele>
        <time>2022-09-05T23:10:21.991Z</time>
      </trkpt>
      <trkpt lat="44.81612" lon="5.32103">
        <ele>899.2</ele>
        <time>2022-09-05T23:10:43.556Z</time>
      </trkpt>
      <trkpt lat="44.81528" lon="5.32073">
        <ele>883.6</ele>
        <time>2022-09-05T23:11:05.181Z</time>
      </trkpt>
      <trkpt lat="44.81504" lon="5.32084">
        <ele>883.1</ele>
        <time>2022-09-05T23:11:26.829Z</time>
      </trkpt>
      <trkpt lat="44.81412" lon="5.32057">
        <ele>879.4</ele>
        <time>2022-09-05T23:11:48.501Z</time>
      </trkpt>
      <trkpt lat="44.81315" lon="5.32073">
        <ele>874</ele>
        <time>2022-09-05T23:12:10.211Z</time>
      </trkpt>
      <trkpt lat="44.81284" lon="5.3211">
        <ele>862.2</ele>
        <time>2022-09-05T23:12:31.949Z</time>
      </trkpt>
      <trkpt lat="44.81249" lon="5.32109">
        <ele>850</ele>
        <time>2022-09-05T23:12:53.702Z</time>
      </trkpt>
      <trkpt lat="44.81227" lon="5.3206">
        <ele>845.6</ele>
        <time>2022-09-05T23:13:15.470Z</time>
      </trkpt>
      <trkpt lat="44.81288" lon="5.31874">
        <ele>831</ele>
        <time>2022-09-05T23:13:37.276Z</time>
      </trkpt>
      <trkpt lat="44.81223" lon="5.31942">
        <ele>825.7</ele>
        <time>2022-09-05T23:13:59.128Z</time>
      </trkpt>
      <trkpt lat="44.81179" lon="5.32038">
        <ele>818.2</ele>
        <time>2022-09-05T23:14:21.012Z</time>
      </trkpt>
      <trkpt lat="44.8117" lon="5.32025">
        <ele>813.6</ele>
        <time>2022-09-05T23:14:42.914Z</time>
      </trkpt>
      <trkpt lat="44.81204" lon="5.31856">
        <ele>797.6</ele>
        <time>2022-09-05T23:15:04.843Z</time>
      </trkpt>
      <trkpt lat="44.81261" lon="5.31832">
        <ele>806.7</ele>
        <time>2022-09-05T23:15:26.809Z</time>
      </trkpt>
      <trkpt lat="44.81305" lon="5.31783">
        <ele>800.9</ele>
        <time>2022-09-05T23:15:48.798Z</time>
      </trkpt>
      <trkpt lat="44.81374" lon="5.31744">
        <ele>798.5</ele>
        <time>2022-09-05T23:16:10.813Z</time>
      </trkpt>
      <trkpt lat="44.81546" lon="5.31771">
        <ele>814.3</ele>
        <time>2022-09-05T23:16:32.878Z</time>
      </trkpt>
      <trkpt lat="44.81603" lon="5.31763">
        <ele>805.6</ele>
        <time>2022-09-05T23:16:54.989Z</time>
      </trkpt>
      <trkpt lat="44.81671" lon="5.31803">
        <ele>810.5</ele>
        <time>2022-09-05T23:17:17.126Z</time>
      </trkpt>
      <trkpt lat="44.81746" lon="5.31816">
        <ele>820.4</ele>
        <time>2022-09-05T23:17:39.293Z</time>
      </trkpt>
      <trkpt lat="44.81687" lon="5.31726">
        <ele>806.5</ele>
        <time>2022-09-05T23:18:01.493Z</time>
      </trkpt>
      <trkpt lat="44.81726" lon="5.31653">
        <ele>819</ele>
        <time>2022-09-05T23:18:23.724Z</time>
      </trkpt>
      <trkpt lat="44.81738" lon="5.31576">
        <ele>816.7</ele>
        <time>2022-09-05T23:18:45.979Z</time>
      </trkpt>
      <trkpt lat="44.8171" lon="5.31548">
        <ele>819.1</ele>
        <time>2022-09-05T23:19:08.252Z</time>
      </trkpt>
      <trkpt lat="44.81677" lon="5.31572">
        <ele>810.6</ele>
        <time>2022-09-05T23:19:30.539Z</time>
      </trkpt>
      <trkpt lat="44.81608" lon="5.31541">
        <ele>808</ele>
        <time>2022-09-05T23:19:52.848Z</time>
      </trkpt>
      <trkpt lat="44.81556" lon="5.31338">
        <ele>810.6</ele>
        <time>2022-09-05T23:20:15.202Z</time>
      </trkpt>
      <trkpt lat="44.81487" lon="5.31218">
        <ele>804.8</ele>
        <time>2022-09-05T23:20:37.608Z</time>
      </trkpt>
      <trkpt lat="44.81542" lon="5.30817">
        <ele>804.5</ele>
        <time>2022-09-05T23:21:00.094Z</time>
      </trkpt>
      <trkpt lat="44.81618" lon="5.30736">
        <ele>809.1</ele>
        <time>2022-09-05T23:21:22.657Z</time>
      </trkpt>
      <trkpt lat="44.81632" lon="5.30693">
        <ele>804</ele>
        <time>2022-09-05T23:21:45.246Z</time>
      </trkpt>
      <trkpt lat="44.8167" lon="5.30663">
        <ele>806.6</ele>
        <time>2022-09-05T23:22:07.851Z</time>
      </trkpt>
      <trkpt lat="44.81654" lon="5.30554">
        <ele>778.3</ele>
        <time>2022-09-05T23:22:30.481Z</time>
      </trkpt>
      <trkpt lat="44.81503" lon="5.30185">
        <ele>735.4</ele>
        <time>2022-09-05T23:22:53.187Z</time>
      </trkpt>
      <trkpt lat="44.81434" lon="5.30393">
        <ele>719.2</ele>
        <time>2022-09-05T23:23:15.986Z</time>
      </trkpt>
      <trkpt lat="44.81193" lon="5.30711">
        <ele>711.6</ele>
        <time>2022-09-05T23:23:38.884Z</time>
      </trkpt>
      <trkpt lat="44.81133" lon="5.30849">
        <ele>696.2</ele>
        <time>2022-09-05T23:24:01.871Z</time>
      </trkpt>
      <trkpt lat="44.81112" lon="5.30963">
        <ele>682.9</ele>
        <time>2022-09-05T23:24:24.898Z</time>
      </trkpt>
      <trkpt lat="44.81142" lon="5.31038">
        <ele>686.5</ele>
        <time>2022-09-05T23:24:47.954Z</time>
      </trkpt>
      <trkpt lat="44.81068" lon="5.31059">
        <ele>684.7</ele>
        <time>2022-09-05T23:25:11.037Z</time>
      </trkpt>
      <trkpt lat="44.81016" lon="5.31042">
        <ele>681.1</ele>
        <time>2022-09-05T23:25:34.146Z</time>
      </trkpt>
      <trkpt lat="44.80987" lon="5.31052">
        <ele>680.5</ele>
        <time>2022-09-05T23:25:57.272Z</time>
      </trkpt>
      <trkpt lat="44.8091" lon="5.31119">
        <ele>677.2</ele>
        <time>2022-09-05T23:26:20.422Z</time>
      </trkpt>
      <trkpt lat="44.80773" lon="5.31298">
        <ele>666.8</ele>
        <time>2022-09-05T23:26:43.628Z</time>
      </trkpt>
      <trkpt lat="44.80802" lon="5.31334">
        <ele>668.1</ele>
        <time>2022-09-05T23:27:06.879Z</time>
      </trkpt>
      <trkpt lat="44.80929" lon="5.31388">
        <ele>656.9</ele>
        <time>2022-09-05T23:27:30.164Z</time>
      </trkpt>
      <trkpt lat="44.80867" lon="5.31422">
        <ele>652.2</ele>
        <time>2022-09-05T23:27:53.489Z</time>
      </trkpt>
      <trkpt lat="44.80824" lon="5.31489">
        <ele>670.5</ele>
        <time>2022-09-05T23:28:16.840Z</time>
      </trkpt>
      <trkpt lat="44.80766" lon="5.31523">
        <ele>664.1</ele>
        <time>2022-09-05T23:28:40.217Z</time>
      </trkpt>
      <trkpt lat="44.80796" lon="5.31513">
        <ele>670.5</ele>
        <time>2022-09-05T23:29:03.613Z</time>
      </trkpt>
      <trkpt lat="44.80832" lon="5.31528">
        <ele>675.9</ele>
        <time>2022-09-05T23:29:27.022Z</time>
      </trkpt>
      <trkpt lat="44.80865" lon="5.31515">
        <ele>677.4</ele>
        <time>2022-09-05T23:29:50.445Z</time>
      </trkpt>
      <trkpt lat="44.80917" lon="5.31532">
        <ele>682.3</ele>
        <time>2022-09-05T23:30:13.886Z</time>
      </trkpt>
      <trkpt lat="44.8096" lon="5.31647">
        <ele>696.7</ele>
        <time>2022-09-05T23:30:37.356Z</time>
      </trkpt>
      <trkpt lat="44.80973" lon="5.3174">
        <ele>711.2</ele>
        <time>2022-09-05T23:31:00.858Z</time>
      </trkpt>
      <trkpt lat="44.80832" lon="5.3184">
        <ele>705.3</ele>
        <time>2022-09-05T23:31:24.405Z</time>
      </trkpt>
      <trkpt lat="44.80839" lon="5.3195">
        <ele>718.8</ele>
        <time>2022-09-05T23:31:47.999Z</time>
      </trkpt>
      <trkpt lat="44.80799" lon="5.32082">
        <ele>709.5</ele>
        <time>2022-09-05T23:32:11.630Z</time>
      </trkpt>
      <trkpt lat="44.80747" lon="5.32096">
        <ele>693.8</ele>
        <time>2022-09-05T23:32:35.292Z</time>
      </trkpt>
      <trkpt lat="44.80706" lon="5.3208">
        <ele>691</ele>
        <time>2022-09-05T23:32:58.973Z</time>
      </trkpt>
      <trkpt lat="44.8077" lon="5.3214">
        <ele>685.3</ele>
        <time>2022-09-05T23:33:22.678Z</time>
      </trkpt>
      <trkpt lat="44.80728" lon="5.32142">
        <ele>679.5</ele>
        <time>2022-09-05T23:33:46.407Z</time>
      </trkpt>
      <trkpt lat="44.8077" lon="5.32176">
        <ele>674.3</ele>
        <time>2022-09-05T23:34:10.154Z</time>
      </trkpt>
      <trkpt lat="44.80794" lon="5.3217">
        <ele>679.3</ele>
        <time>2022-09-05T23:34:33.915Z</time>
      </trkpt>
      <trkpt lat="44.80858" lon="5.32206">
        <ele>676.6</ele>
        <time>2022-09-05T23:34:57.695Z</time>
      </trkpt>
      <trkpt lat="44.80858" lon="5.32224">
        <ele>672.2</ele>
        <time>2022-09-05T23:35:21.492Z</time>
      </trkpt>
      <trkpt lat="44.80636" lon="5.3222">
        <ele>647.1</ele>
        <time>2022-09-05T23:35:45.336Z</time>
      </trkpt>
      <trkpt lat="44.80607" lon="5.3225">
        <ele>639.4</ele>
        <time>2022-09-05T23:36:09.231Z</time>
      </trkpt>
      <trkpt lat="44.80434" lon="5.32269">
        <ele>619.7</ele>
        <time>2022-09-05T23:36:33.168Z</time>
      </trkpt>
      <trkpt lat="44.80384" lon="5.32225">
        <ele>616.4</ele>
        <time>2022-09-05T23:36:57.152Z</time>
      </trkpt>
      <trkpt lat="44.80329" lon="5.32247">
        <ele>611.6</ele>
        <time>2022-09-05T23:37:21.159Z</time>
      </trkpt>
      <trkpt lat="44.8024" lon="5.32208">
        <ele>602.9</ele>
        <time>2022-09-05T23:37:45.196Z</time>
      </trkpt>
      <trkpt lat="44.8023" lon="5.32271">
        <ele>602.3</ele>
        <time>2022-09-05T23:38:09.261Z</time>
      </trkpt>
      <trkpt lat="44.80273" lon="5.32307">
        <ele>608.5</ele>
        <time>2022-09-05T23:38:33.345Z</time>
      </trkpt>
      <trkpt lat="44.80241" lon="5.32451">
        <ele>612.9</ele>
        <time>2022-09-05T23:38:57.460Z</time>
      </trkpt>
      <trkpt lat="44.80261" lon="5.32533">
        <ele>617.7</ele>
        <time>2022-09-05T23:39:21.609Z</time>
      </trkpt>
      <trkpt lat="44.8025" lon="5.32694">
        <ele>618</ele>
        <time>2022-09-05T23:39:45.794Z</time>
      </trkpt>
      <trkpt lat="44.80185" lon="5.32914">
        <ele>623.9</ele>
        <time>2022-09-05T23:40:10.036Z</time>
      </trkpt>
      <trkpt lat="44.80168" lon="5.33025">
        <ele>626.2</ele>
        <time>2022-09-05T23:40:34.328Z</time>
      </trkpt>
      <trkpt lat="44.80201" lon="5.33056">
        <ele>627.1</ele>
        <time>2022-09-05T23:40:58.644Z</time>
      </trkpt>
      <trkpt lat="44.8034" lon="5.33096">
        <ele>625.3</ele>
        <time>2022-09-05T23:41:22.996Z</time>
      </trkpt>
      <trkpt lat="44.80392" lon="5.33151">
        <ele>625.8</ele>
        <time>2022-09-05T23:41:47.389Z</time>
      </trkpt>
      <trkpt lat="44.80404" lon="5.33218">
        <ele>625.5</ele>
        <time>2022-09-05T23:42:11.805Z</time>
      </trkpt>
    </trkseg>
  </trk>
</gpx>